<?xml version="1.0" encoding="UTF-8" standalone="no" ?>
<gpx xmlns="http://www.topografix.com/GPX/1/1" xmlns:xsi="http://www.w3.org/2001/XMLSchema-instance" xsi:schemaLocation="http://www.topografix.com/GPX/1/1 http://www.topografix.com/GPX/1/1/gpx.xsd" version="1.1" creator="VisuGPX - https://www.visugpx.com">
  <metadata>
    <name>2021-12-15 13:33</name>
    <desc><![CDATA[File with points/tracks from Locus Map/4.5.4]]></desc>
  </metadata>
  <trk>
    <name><![CDATA[2021-12-15 13:33]]></name>
    <extensions>
      <line xmlns="http://www.topografix.com/GPX/gpx_style/0/2">
        <color>0000FF</color>
        <opacity>0.59</opacity>
        <width>6.0</width>
      </line>
    </extensions>
    <trkseg>
      <trkpt lat="46.6754" lon="5.53805">
        <ele>245.19</ele>
        <time>2021-12-15T12:33:23.000Z</time>
      </trkpt>
      <trkpt lat="46.67542" lon="5.53787">
        <ele>244.32</ele>
        <time>2021-12-15T12:33:33.000Z</time>
      </trkpt>
      <trkpt lat="46.67543" lon="5.53768">
        <ele>241.71</ele>
        <time>2021-12-15T12:33:43.000Z</time>
      </trkpt>
      <trkpt lat="46.67544" lon="5.5375">
        <ele>242.62</ele>
        <time>2021-12-15T12:33:53.000Z</time>
      </trkpt>
      <trkpt lat="46.67547" lon="5.53721">
        <ele>241.08</ele>
        <time>2021-12-15T12:34:03.000Z</time>
      </trkpt>
      <trkpt lat="46.67548" lon="5.53701">
        <ele>242.84</ele>
        <time>2021-12-15T12:34:13.000Z</time>
      </trkpt>
      <trkpt lat="46.6755" lon="5.53678">
        <ele>241.62</ele>
        <time>2021-12-15T12:34:23.000Z</time>
      </trkpt>
      <trkpt lat="46.67545" lon="5.53657">
        <ele>241.31</ele>
        <time>2021-12-15T12:34:33.000Z</time>
      </trkpt>
      <trkpt lat="46.67542" lon="5.53636">
        <ele>242.65</ele>
        <time>2021-12-15T12:34:43.000Z</time>
      </trkpt>
      <trkpt lat="46.67539" lon="5.5362">
        <ele>241.36</ele>
        <time>2021-12-15T12:34:53.000Z</time>
      </trkpt>
      <trkpt lat="46.67536" lon="5.53603">
        <ele>241.65</ele>
        <time>2021-12-15T12:35:03.000Z</time>
      </trkpt>
      <trkpt lat="46.67535" lon="5.53589">
        <ele>239.42</ele>
        <time>2021-12-15T12:35:13.000Z</time>
      </trkpt>
      <trkpt lat="46.67532" lon="5.53583">
        <ele>240.24</ele>
        <time>2021-12-15T12:35:23.000Z</time>
      </trkpt>
      <trkpt lat="46.67535" lon="5.53562">
        <ele>240.65</ele>
        <time>2021-12-15T12:35:33.000Z</time>
      </trkpt>
      <trkpt lat="46.6754" lon="5.53535">
        <ele>242.68</ele>
        <time>2021-12-15T12:35:43.000Z</time>
      </trkpt>
      <trkpt lat="46.67546" lon="5.53519">
        <ele>246.41</ele>
        <time>2021-12-15T12:35:53.000Z</time>
      </trkpt>
      <trkpt lat="46.67554" lon="5.5352">
        <ele>243.88</ele>
        <time>2021-12-15T12:36:03.000Z</time>
      </trkpt>
      <trkpt lat="46.6756" lon="5.53533">
        <ele>238.93</ele>
        <time>2021-12-15T12:36:13.000Z</time>
      </trkpt>
      <trkpt lat="46.67564" lon="5.53543">
        <ele>237.97</ele>
        <time>2021-12-15T12:36:23.000Z</time>
      </trkpt>
      <trkpt lat="46.6757" lon="5.53558">
        <ele>237.29</ele>
        <time>2021-12-15T12:36:33.000Z</time>
      </trkpt>
      <trkpt lat="46.67578" lon="5.53576">
        <ele>234.8</ele>
        <time>2021-12-15T12:36:43.000Z</time>
      </trkpt>
      <trkpt lat="46.67581" lon="5.53585">
        <ele>234.78</ele>
        <time>2021-12-15T12:36:53.000Z</time>
      </trkpt>
      <trkpt lat="46.67588" lon="5.53603">
        <ele>233.77</ele>
        <time>2021-12-15T12:37:03.000Z</time>
      </trkpt>
      <trkpt lat="46.67593" lon="5.53618">
        <ele>234.29</ele>
        <time>2021-12-15T12:37:13.000Z</time>
      </trkpt>
      <trkpt lat="46.67601" lon="5.53635">
        <ele>236.04</ele>
        <time>2021-12-15T12:37:23.000Z</time>
      </trkpt>
      <trkpt lat="46.67607" lon="5.53651">
        <ele>237.03</ele>
        <time>2021-12-15T12:37:33.000Z</time>
      </trkpt>
      <trkpt lat="46.67613" lon="5.53665">
        <ele>234.3</ele>
        <time>2021-12-15T12:37:43.000Z</time>
      </trkpt>
      <trkpt lat="46.67618" lon="5.53678">
        <ele>232.18</ele>
        <time>2021-12-15T12:37:53.000Z</time>
      </trkpt>
      <trkpt lat="46.67624" lon="5.53695">
        <ele>230.76</ele>
        <time>2021-12-15T12:38:03.000Z</time>
      </trkpt>
      <trkpt lat="46.67634" lon="5.53711">
        <ele>232.69</ele>
        <time>2021-12-15T12:38:13.000Z</time>
      </trkpt>
      <trkpt lat="46.6764" lon="5.53721">
        <ele>231.95</ele>
        <time>2021-12-15T12:38:23.000Z</time>
      </trkpt>
      <trkpt lat="46.67651" lon="5.53735">
        <ele>232.49</ele>
        <time>2021-12-15T12:38:33.000Z</time>
      </trkpt>
      <trkpt lat="46.67659" lon="5.5375">
        <ele>232.3</ele>
        <time>2021-12-15T12:38:43.000Z</time>
      </trkpt>
      <trkpt lat="46.67669" lon="5.53764">
        <ele>232.02</ele>
        <time>2021-12-15T12:38:53.000Z</time>
      </trkpt>
      <trkpt lat="46.67674" lon="5.53772">
        <ele>232.66</ele>
        <time>2021-12-15T12:39:03.000Z</time>
      </trkpt>
      <trkpt lat="46.67677" lon="5.53786">
        <ele>232.8</ele>
        <time>2021-12-15T12:39:13.000Z</time>
      </trkpt>
      <trkpt lat="46.67684" lon="5.53798">
        <ele>232.95</ele>
        <time>2021-12-15T12:39:23.000Z</time>
      </trkpt>
      <trkpt lat="46.67694" lon="5.53807">
        <ele>233.28</ele>
        <time>2021-12-15T12:39:33.000Z</time>
      </trkpt>
      <trkpt lat="46.67701" lon="5.53821">
        <ele>233.43</ele>
        <time>2021-12-15T12:39:43.000Z</time>
      </trkpt>
      <trkpt lat="46.67707" lon="5.53836">
        <ele>232.38</ele>
        <time>2021-12-15T12:39:53.000Z</time>
      </trkpt>
      <trkpt lat="46.67715" lon="5.53851">
        <ele>231.06</ele>
        <time>2021-12-15T12:40:03.000Z</time>
      </trkpt>
      <trkpt lat="46.6772" lon="5.53866">
        <ele>230.26</ele>
        <time>2021-12-15T12:40:13.000Z</time>
      </trkpt>
      <trkpt lat="46.67729" lon="5.53882">
        <ele>229.86</ele>
        <time>2021-12-15T12:40:23.000Z</time>
      </trkpt>
      <trkpt lat="46.67733" lon="5.53895">
        <ele>229.09</ele>
        <time>2021-12-15T12:40:33.000Z</time>
      </trkpt>
      <trkpt lat="46.6774" lon="5.5391">
        <ele>229.12</ele>
        <time>2021-12-15T12:40:43.000Z</time>
      </trkpt>
      <trkpt lat="46.67748" lon="5.53928">
        <ele>230.23</ele>
        <time>2021-12-15T12:40:53.000Z</time>
      </trkpt>
      <trkpt lat="46.67757" lon="5.53944">
        <ele>232.98</ele>
        <time>2021-12-15T12:41:03.000Z</time>
      </trkpt>
      <trkpt lat="46.67763" lon="5.53956">
        <ele>234.12</ele>
        <time>2021-12-15T12:41:13.000Z</time>
      </trkpt>
      <trkpt lat="46.67773" lon="5.53964">
        <ele>236.65</ele>
        <time>2021-12-15T12:41:23.000Z</time>
      </trkpt>
      <trkpt lat="46.67783" lon="5.53971">
        <ele>238.44</ele>
        <time>2021-12-15T12:41:33.000Z</time>
      </trkpt>
      <trkpt lat="46.67797" lon="5.53975">
        <ele>239.88</ele>
        <time>2021-12-15T12:41:43.000Z</time>
      </trkpt>
      <trkpt lat="46.6781" lon="5.53974">
        <ele>242.01</ele>
        <time>2021-12-15T12:41:53.000Z</time>
      </trkpt>
      <trkpt lat="46.67819" lon="5.53974">
        <ele>243.02</ele>
        <time>2021-12-15T12:42:03.000Z</time>
      </trkpt>
      <trkpt lat="46.67833" lon="5.53974">
        <ele>244.52</ele>
        <time>2021-12-15T12:42:13.000Z</time>
      </trkpt>
      <trkpt lat="46.67843" lon="5.53973">
        <ele>245.93</ele>
        <time>2021-12-15T12:42:23.000Z</time>
      </trkpt>
      <trkpt lat="46.67855" lon="5.5397">
        <ele>247.21</ele>
        <time>2021-12-15T12:42:33.000Z</time>
      </trkpt>
      <trkpt lat="46.67866" lon="5.53972">
        <ele>247.73</ele>
        <time>2021-12-15T12:42:43.000Z</time>
      </trkpt>
      <trkpt lat="46.67878" lon="5.53973">
        <ele>247.82</ele>
        <time>2021-12-15T12:42:53.000Z</time>
      </trkpt>
      <trkpt lat="46.67889" lon="5.53971">
        <ele>249.95</ele>
        <time>2021-12-15T12:43:03.000Z</time>
      </trkpt>
      <trkpt lat="46.67897" lon="5.53971">
        <ele>250.94</ele>
        <time>2021-12-15T12:43:13.000Z</time>
      </trkpt>
      <trkpt lat="46.67908" lon="5.53973">
        <ele>254.17</ele>
        <time>2021-12-15T12:43:23.000Z</time>
      </trkpt>
      <trkpt lat="46.67917" lon="5.53978">
        <ele>251.08</ele>
        <time>2021-12-15T12:43:33.000Z</time>
      </trkpt>
      <trkpt lat="46.67922" lon="5.53989">
        <ele>248.35</ele>
        <time>2021-12-15T12:43:43.000Z</time>
      </trkpt>
      <trkpt lat="46.67926" lon="5.53989">
        <ele>249.04</ele>
        <time>2021-12-15T12:43:53.000Z</time>
      </trkpt>
      <trkpt lat="46.67934" lon="5.53975">
        <ele>251.45</ele>
        <time>2021-12-15T12:44:03.000Z</time>
      </trkpt>
      <trkpt lat="46.67937" lon="5.53957">
        <ele>255.23</ele>
        <time>2021-12-15T12:44:13.000Z</time>
      </trkpt>
      <trkpt lat="46.67943" lon="5.53945">
        <ele>254.18</ele>
        <time>2021-12-15T12:44:23.000Z</time>
      </trkpt>
      <trkpt lat="46.67951" lon="5.53936">
        <ele>253.33</ele>
        <time>2021-12-15T12:44:33.000Z</time>
      </trkpt>
      <trkpt lat="46.67962" lon="5.53926">
        <ele>255.49</ele>
        <time>2021-12-15T12:44:43.000Z</time>
      </trkpt>
      <trkpt lat="46.67972" lon="5.53916">
        <ele>256.95</ele>
        <time>2021-12-15T12:44:53.000Z</time>
      </trkpt>
      <trkpt lat="46.67983" lon="5.53911">
        <ele>257.57</ele>
        <time>2021-12-15T12:45:03.000Z</time>
      </trkpt>
      <trkpt lat="46.67995" lon="5.53908">
        <ele>257.95</ele>
        <time>2021-12-15T12:45:13.000Z</time>
      </trkpt>
      <trkpt lat="46.68006" lon="5.53905">
        <ele>257.02</ele>
        <time>2021-12-15T12:45:23.000Z</time>
      </trkpt>
      <trkpt lat="46.68018" lon="5.539">
        <ele>256.2</ele>
        <time>2021-12-15T12:45:33.000Z</time>
      </trkpt>
      <trkpt lat="46.68028" lon="5.53895">
        <ele>257.17</ele>
        <time>2021-12-15T12:45:43.000Z</time>
      </trkpt>
      <trkpt lat="46.68041" lon="5.53894">
        <ele>258.63</ele>
        <time>2021-12-15T12:45:53.000Z</time>
      </trkpt>
      <trkpt lat="46.6805" lon="5.53891">
        <ele>257.88</ele>
        <time>2021-12-15T12:46:03.000Z</time>
      </trkpt>
      <trkpt lat="46.68062" lon="5.53885">
        <ele>258.37</ele>
        <time>2021-12-15T12:46:13.000Z</time>
      </trkpt>
      <trkpt lat="46.68067" lon="5.53877">
        <ele>260.65</ele>
        <time>2021-12-15T12:46:23.000Z</time>
      </trkpt>
      <trkpt lat="46.68071" lon="5.53874">
        <ele>260.87</ele>
        <time>2021-12-15T12:46:33.000Z</time>
      </trkpt>
      <trkpt lat="46.68074" lon="5.53872">
        <ele>260.86</ele>
        <time>2021-12-15T12:46:45.000Z</time>
      </trkpt>
      <trkpt lat="46.68096" lon="5.53867">
        <ele>259.53</ele>
        <time>2021-12-15T12:46:55.000Z</time>
      </trkpt>
      <trkpt lat="46.68106" lon="5.53862">
        <ele>259.62</ele>
        <time>2021-12-15T12:47:05.000Z</time>
      </trkpt>
      <trkpt lat="46.68121" lon="5.53864">
        <ele>258.14</ele>
        <time>2021-12-15T12:47:15.000Z</time>
      </trkpt>
      <trkpt lat="46.68133" lon="5.53865">
        <ele>257.29</ele>
        <time>2021-12-15T12:47:25.000Z</time>
      </trkpt>
      <trkpt lat="46.68138" lon="5.53864">
        <ele>258.27</ele>
        <time>2021-12-15T12:47:35.000Z</time>
      </trkpt>
      <trkpt lat="46.68147" lon="5.53863">
        <ele>257.87</ele>
        <time>2021-12-15T12:47:45.000Z</time>
      </trkpt>
      <trkpt lat="46.68157" lon="5.53862">
        <ele>258.67</ele>
        <time>2021-12-15T12:47:55.000Z</time>
      </trkpt>
      <trkpt lat="46.6817" lon="5.53861">
        <ele>262.06</ele>
        <time>2021-12-15T12:48:05.000Z</time>
      </trkpt>
      <trkpt lat="46.68185" lon="5.53861">
        <ele>265.58</ele>
        <time>2021-12-15T12:48:15.000Z</time>
      </trkpt>
      <trkpt lat="46.6819" lon="5.53863">
        <ele>265.86</ele>
        <time>2021-12-15T12:48:25.000Z</time>
      </trkpt>
      <trkpt lat="46.68193" lon="5.53863">
        <ele>265.94</ele>
        <time>2021-12-15T12:48:38.000Z</time>
      </trkpt>
      <trkpt lat="46.68207" lon="5.53857">
        <ele>266.19</ele>
        <time>2021-12-15T12:48:48.000Z</time>
      </trkpt>
      <trkpt lat="46.68217" lon="5.53854">
        <ele>266.18</ele>
        <time>2021-12-15T12:48:58.000Z</time>
      </trkpt>
      <trkpt lat="46.68232" lon="5.53844">
        <ele>265.73</ele>
        <time>2021-12-15T12:49:08.000Z</time>
      </trkpt>
      <trkpt lat="46.68246" lon="5.53837">
        <ele>270.43</ele>
        <time>2021-12-15T12:49:18.000Z</time>
      </trkpt>
      <trkpt lat="46.68254" lon="5.53831">
        <ele>275.77</ele>
        <time>2021-12-15T12:49:28.000Z</time>
      </trkpt>
      <trkpt lat="46.68263" lon="5.53821">
        <ele>277.91</ele>
        <time>2021-12-15T12:49:38.000Z</time>
      </trkpt>
      <trkpt lat="46.68268" lon="5.53811">
        <ele>277.81</ele>
        <time>2021-12-15T12:49:48.000Z</time>
      </trkpt>
      <trkpt lat="46.68271" lon="5.53805">
        <ele>277.64</ele>
        <time>2021-12-15T12:49:58.000Z</time>
      </trkpt>
      <trkpt lat="46.68278" lon="5.53795">
        <ele>278.32</ele>
        <time>2021-12-15T12:50:08.000Z</time>
      </trkpt>
      <trkpt lat="46.68285" lon="5.53784">
        <ele>279.6</ele>
        <time>2021-12-15T12:50:18.000Z</time>
      </trkpt>
      <trkpt lat="46.68293" lon="5.53775">
        <ele>281.9</ele>
        <time>2021-12-15T12:50:28.000Z</time>
      </trkpt>
      <trkpt lat="46.68298" lon="5.53766">
        <ele>283.35</ele>
        <time>2021-12-15T12:50:38.000Z</time>
      </trkpt>
      <trkpt lat="46.683" lon="5.53765">
        <ele>284.17</ele>
        <time>2021-12-15T12:50:48.000Z</time>
      </trkpt>
      <trkpt lat="46.68301" lon="5.53763">
        <ele>284.24</ele>
        <time>2021-12-15T12:51:09.000Z</time>
      </trkpt>
      <trkpt lat="46.68302" lon="5.53761">
        <ele>285.18</ele>
        <time>2021-12-15T12:51:19.000Z</time>
      </trkpt>
      <trkpt lat="46.68304" lon="5.53759">
        <ele>285.31</ele>
        <time>2021-12-15T12:52:16.000Z</time>
      </trkpt>
      <trkpt lat="46.68308" lon="5.53753">
        <ele>286.6</ele>
        <time>2021-12-15T12:52:26.000Z</time>
      </trkpt>
      <trkpt lat="46.68314" lon="5.53751">
        <ele>287.09</ele>
        <time>2021-12-15T12:52:36.000Z</time>
      </trkpt>
      <trkpt lat="46.68325" lon="5.53747">
        <ele>285.85</ele>
        <time>2021-12-15T12:52:46.000Z</time>
      </trkpt>
      <trkpt lat="46.68331" lon="5.53741">
        <ele>286.36</ele>
        <time>2021-12-15T12:52:56.000Z</time>
      </trkpt>
      <trkpt lat="46.68344" lon="5.53737">
        <ele>286.6</ele>
        <time>2021-12-15T12:53:06.000Z</time>
      </trkpt>
      <trkpt lat="46.68363" lon="5.53729">
        <ele>290.15</ele>
        <time>2021-12-15T12:53:16.000Z</time>
      </trkpt>
      <trkpt lat="46.68374" lon="5.53718">
        <ele>293.39</ele>
        <time>2021-12-15T12:53:26.000Z</time>
      </trkpt>
      <trkpt lat="46.68378" lon="5.53706">
        <ele>292.37</ele>
        <time>2021-12-15T12:53:36.000Z</time>
      </trkpt>
      <trkpt lat="46.68373" lon="5.53694">
        <ele>290.15</ele>
        <time>2021-12-15T12:53:46.000Z</time>
      </trkpt>
      <trkpt lat="46.68364" lon="5.5369">
        <ele>288.22</ele>
        <time>2021-12-15T12:53:56.000Z</time>
      </trkpt>
      <trkpt lat="46.68353" lon="5.53687">
        <ele>285.06</ele>
        <time>2021-12-15T12:54:06.000Z</time>
      </trkpt>
      <trkpt lat="46.68341" lon="5.53675">
        <ele>285.2</ele>
        <time>2021-12-15T12:54:16.000Z</time>
      </trkpt>
      <trkpt lat="46.68331" lon="5.53672">
        <ele>286.85</ele>
        <time>2021-12-15T12:54:26.000Z</time>
      </trkpt>
      <trkpt lat="46.68319" lon="5.53668">
        <ele>287.87</ele>
        <time>2021-12-15T12:54:36.000Z</time>
      </trkpt>
      <trkpt lat="46.6831" lon="5.53657">
        <ele>289.52</ele>
        <time>2021-12-15T12:54:46.000Z</time>
      </trkpt>
      <trkpt lat="46.68304" lon="5.53647">
        <ele>288.51</ele>
        <time>2021-12-15T12:54:56.000Z</time>
      </trkpt>
      <trkpt lat="46.68297" lon="5.53634">
        <ele>288.26</ele>
        <time>2021-12-15T12:55:06.000Z</time>
      </trkpt>
      <trkpt lat="46.68292" lon="5.53622">
        <ele>289.16</ele>
        <time>2021-12-15T12:55:16.000Z</time>
      </trkpt>
      <trkpt lat="46.68291" lon="5.53617">
        <ele>288.92</ele>
        <time>2021-12-15T12:55:26.000Z</time>
      </trkpt>
      <trkpt lat="46.68289" lon="5.53607">
        <ele>286.48</ele>
        <time>2021-12-15T12:55:36.000Z</time>
      </trkpt>
      <trkpt lat="46.68286" lon="5.53598">
        <ele>284.43</ele>
        <time>2021-12-15T12:55:46.000Z</time>
      </trkpt>
      <trkpt lat="46.68282" lon="5.53589">
        <ele>283.11</ele>
        <time>2021-12-15T12:55:56.000Z</time>
      </trkpt>
      <trkpt lat="46.68281" lon="5.53586">
        <ele>282.55</ele>
        <time>2021-12-15T12:56:06.000Z</time>
      </trkpt>
      <trkpt lat="46.68278" lon="5.53583">
        <ele>282.63</ele>
        <time>2021-12-15T12:56:16.000Z</time>
      </trkpt>
      <trkpt lat="46.68273" lon="5.53569">
        <ele>282.56</ele>
        <time>2021-12-15T12:56:25.999Z</time>
      </trkpt>
      <trkpt lat="46.68268" lon="5.53555">
        <ele>281.38</ele>
        <time>2021-12-15T12:56:35.999Z</time>
      </trkpt>
      <trkpt lat="46.68261" lon="5.53541">
        <ele>281.21</ele>
        <time>2021-12-15T12:56:45.999Z</time>
      </trkpt>
      <trkpt lat="46.68254" lon="5.53522">
        <ele>280.22</ele>
        <time>2021-12-15T12:56:55.999Z</time>
      </trkpt>
      <trkpt lat="46.68252" lon="5.53515">
        <ele>279.53</ele>
        <time>2021-12-15T12:57:05.999Z</time>
      </trkpt>
      <trkpt lat="46.68248" lon="5.53495">
        <ele>278.88</ele>
        <time>2021-12-15T12:57:15.999Z</time>
      </trkpt>
      <trkpt lat="46.68242" lon="5.53481">
        <ele>276.88</ele>
        <time>2021-12-15T12:57:25.999Z</time>
      </trkpt>
      <trkpt lat="46.68238" lon="5.53469">
        <ele>274.58</ele>
        <time>2021-12-15T12:57:35.999Z</time>
      </trkpt>
      <trkpt lat="46.68235" lon="5.53455">
        <ele>271.25</ele>
        <time>2021-12-15T12:57:45.999Z</time>
      </trkpt>
      <trkpt lat="46.68234" lon="5.53441">
        <ele>268</ele>
        <time>2021-12-15T12:57:55.999Z</time>
      </trkpt>
      <trkpt lat="46.68232" lon="5.53426">
        <ele>267.65</ele>
        <time>2021-12-15T12:58:05.999Z</time>
      </trkpt>
      <trkpt lat="46.68228" lon="5.53412">
        <ele>267.05</ele>
        <time>2021-12-15T12:58:15.999Z</time>
      </trkpt>
      <trkpt lat="46.68222" lon="5.53402">
        <ele>265.77</ele>
        <time>2021-12-15T12:58:25.999Z</time>
      </trkpt>
      <trkpt lat="46.68217" lon="5.53393">
        <ele>263.59</ele>
        <time>2021-12-15T12:58:35.999Z</time>
      </trkpt>
      <trkpt lat="46.68213" lon="5.53389">
        <ele>263.18</ele>
        <time>2021-12-15T12:58:45.999Z</time>
      </trkpt>
      <trkpt lat="46.682" lon="5.53374">
        <ele>263.23</ele>
        <time>2021-12-15T12:58:55.999Z</time>
      </trkpt>
      <trkpt lat="46.68189" lon="5.53361">
        <ele>265.96</ele>
        <time>2021-12-15T12:59:05.999Z</time>
      </trkpt>
      <trkpt lat="46.68179" lon="5.53353">
        <ele>264.81</ele>
        <time>2021-12-15T12:59:15.999Z</time>
      </trkpt>
      <trkpt lat="46.68171" lon="5.53344">
        <ele>264.3</ele>
        <time>2021-12-15T12:59:25.999Z</time>
      </trkpt>
      <trkpt lat="46.68162" lon="5.53336">
        <ele>265.99</ele>
        <time>2021-12-15T12:59:35.999Z</time>
      </trkpt>
      <trkpt lat="46.68153" lon="5.53329">
        <ele>265.94</ele>
        <time>2021-12-15T12:59:45.999Z</time>
      </trkpt>
      <trkpt lat="46.68142" lon="5.53327">
        <ele>264.42</ele>
        <time>2021-12-15T12:59:55.999Z</time>
      </trkpt>
      <trkpt lat="46.6813" lon="5.5332">
        <ele>262.74</ele>
        <time>2021-12-15T13:00:05.999Z</time>
      </trkpt>
      <trkpt lat="46.68122" lon="5.53307">
        <ele>261.92</ele>
        <time>2021-12-15T13:00:15.999Z</time>
      </trkpt>
      <trkpt lat="46.68117" lon="5.53291">
        <ele>260.31</ele>
        <time>2021-12-15T13:00:25.999Z</time>
      </trkpt>
      <trkpt lat="46.68114" lon="5.53277">
        <ele>257.74</ele>
        <time>2021-12-15T13:00:35.999Z</time>
      </trkpt>
      <trkpt lat="46.68111" lon="5.5326">
        <ele>256.63</ele>
        <time>2021-12-15T13:00:45.999Z</time>
      </trkpt>
      <trkpt lat="46.68107" lon="5.53246">
        <ele>255.27</ele>
        <time>2021-12-15T13:00:55.999Z</time>
      </trkpt>
      <trkpt lat="46.68104" lon="5.53231">
        <ele>255.64</ele>
        <time>2021-12-15T13:01:05.999Z</time>
      </trkpt>
      <trkpt lat="46.68102" lon="5.5321">
        <ele>259.62</ele>
        <time>2021-12-15T13:01:15.999Z</time>
      </trkpt>
      <trkpt lat="46.68112" lon="5.53206">
        <ele>259.36</ele>
        <time>2021-12-15T13:01:25.999Z</time>
      </trkpt>
      <trkpt lat="46.68128" lon="5.53205">
        <ele>258.02</ele>
        <time>2021-12-15T13:01:35.999Z</time>
      </trkpt>
      <trkpt lat="46.68138" lon="5.532">
        <ele>256.39</ele>
        <time>2021-12-15T13:01:45.999Z</time>
      </trkpt>
      <trkpt lat="46.68149" lon="5.53196">
        <ele>255.48</ele>
        <time>2021-12-15T13:01:55.999Z</time>
      </trkpt>
      <trkpt lat="46.6816" lon="5.53191">
        <ele>255.47</ele>
        <time>2021-12-15T13:02:05.999Z</time>
      </trkpt>
      <trkpt lat="46.68171" lon="5.53189">
        <ele>255.63</ele>
        <time>2021-12-15T13:02:15.999Z</time>
      </trkpt>
      <trkpt lat="46.68179" lon="5.53187">
        <ele>254.4</ele>
        <time>2021-12-15T13:02:25.999Z</time>
      </trkpt>
      <trkpt lat="46.682" lon="5.53182">
        <ele>252.5</ele>
        <time>2021-12-15T13:02:35.999Z</time>
      </trkpt>
      <trkpt lat="46.68213" lon="5.53181">
        <ele>252.72</ele>
        <time>2021-12-15T13:02:45.999Z</time>
      </trkpt>
      <trkpt lat="46.68223" lon="5.53176">
        <ele>251.68</ele>
        <time>2021-12-15T13:02:55.999Z</time>
      </trkpt>
      <trkpt lat="46.68231" lon="5.53163">
        <ele>250.91</ele>
        <time>2021-12-15T13:03:05.999Z</time>
      </trkpt>
      <trkpt lat="46.6824" lon="5.5315">
        <ele>252.51</ele>
        <time>2021-12-15T13:03:15.999Z</time>
      </trkpt>
      <trkpt lat="46.68249" lon="5.53141">
        <ele>252.28</ele>
        <time>2021-12-15T13:03:25.999Z</time>
      </trkpt>
      <trkpt lat="46.68256" lon="5.53128">
        <ele>249.76</ele>
        <time>2021-12-15T13:03:35.999Z</time>
      </trkpt>
      <trkpt lat="46.68263" lon="5.53113">
        <ele>250.1</ele>
        <time>2021-12-15T13:03:45.999Z</time>
      </trkpt>
      <trkpt lat="46.68271" lon="5.53098">
        <ele>250.34</ele>
        <time>2021-12-15T13:03:55.999Z</time>
      </trkpt>
      <trkpt lat="46.68279" lon="5.53083">
        <ele>249.71</ele>
        <time>2021-12-15T13:04:05.999Z</time>
      </trkpt>
      <trkpt lat="46.68286" lon="5.5307">
        <ele>247.91</ele>
        <time>2021-12-15T13:04:15.999Z</time>
      </trkpt>
      <trkpt lat="46.68296" lon="5.53057">
        <ele>248.23</ele>
        <time>2021-12-15T13:04:25.999Z</time>
      </trkpt>
      <trkpt lat="46.68306" lon="5.53044">
        <ele>247.51</ele>
        <time>2021-12-15T13:04:35.999Z</time>
      </trkpt>
      <trkpt lat="46.68317" lon="5.5303">
        <ele>246.67</ele>
        <time>2021-12-15T13:04:45.999Z</time>
      </trkpt>
      <trkpt lat="46.68324" lon="5.53018">
        <ele>246.63</ele>
        <time>2021-12-15T13:04:55.999Z</time>
      </trkpt>
      <trkpt lat="46.68333" lon="5.53006">
        <ele>245.15</ele>
        <time>2021-12-15T13:05:05.999Z</time>
      </trkpt>
      <trkpt lat="46.6834" lon="5.52991">
        <ele>245.13</ele>
        <time>2021-12-15T13:05:15.999Z</time>
      </trkpt>
      <trkpt lat="46.68345" lon="5.52976">
        <ele>246.22</ele>
        <time>2021-12-15T13:05:25.999Z</time>
      </trkpt>
      <trkpt lat="46.68347" lon="5.52961">
        <ele>247.23</ele>
        <time>2021-12-15T13:05:35.999Z</time>
      </trkpt>
      <trkpt lat="46.68341" lon="5.52947">
        <ele>247.16</ele>
        <time>2021-12-15T13:05:45.999Z</time>
      </trkpt>
      <trkpt lat="46.68328" lon="5.52947">
        <ele>247.44</ele>
        <time>2021-12-15T13:05:55.999Z</time>
      </trkpt>
      <trkpt lat="46.68316" lon="5.52945">
        <ele>249.1</ele>
        <time>2021-12-15T13:06:05.999Z</time>
      </trkpt>
      <trkpt lat="46.68306" lon="5.52941">
        <ele>251.64</ele>
        <time>2021-12-15T13:06:15.999Z</time>
      </trkpt>
      <trkpt lat="46.68295" lon="5.52937">
        <ele>253.06</ele>
        <time>2021-12-15T13:06:25.999Z</time>
      </trkpt>
      <trkpt lat="46.68286" lon="5.52934">
        <ele>256.08</ele>
        <time>2021-12-15T13:06:35.999Z</time>
      </trkpt>
      <trkpt lat="46.6828" lon="5.52935">
        <ele>257.6</ele>
        <time>2021-12-15T13:06:45.999Z</time>
      </trkpt>
      <trkpt lat="46.68274" lon="5.52935">
        <ele>258.52</ele>
        <time>2021-12-15T13:06:55.999Z</time>
      </trkpt>
      <trkpt lat="46.68267" lon="5.52933">
        <ele>260.39</ele>
        <time>2021-12-15T13:07:05.999Z</time>
      </trkpt>
      <trkpt lat="46.68265" lon="5.5293">
        <ele>260.3</ele>
        <time>2021-12-15T13:07:19.999Z</time>
      </trkpt>
      <trkpt lat="46.68248" lon="5.52914">
        <ele>258.93</ele>
        <time>2021-12-15T13:07:29.999Z</time>
      </trkpt>
      <trkpt lat="46.68245" lon="5.529">
        <ele>261.14</ele>
        <time>2021-12-15T13:07:39.999Z</time>
      </trkpt>
      <trkpt lat="46.68246" lon="5.52895">
        <ele>261.37</ele>
        <time>2021-12-15T13:07:55.999Z</time>
      </trkpt>
      <trkpt lat="46.68248" lon="5.52875">
        <ele>260.68</ele>
        <time>2021-12-15T13:08:05.999Z</time>
      </trkpt>
      <trkpt lat="46.68251" lon="5.52849">
        <ele>259.79</ele>
        <time>2021-12-15T13:08:15.999Z</time>
      </trkpt>
      <trkpt lat="46.68253" lon="5.52828">
        <ele>261.81</ele>
        <time>2021-12-15T13:08:25.999Z</time>
      </trkpt>
      <trkpt lat="46.68253" lon="5.52814">
        <ele>261.66</ele>
        <time>2021-12-15T13:08:35.999Z</time>
      </trkpt>
      <trkpt lat="46.68252" lon="5.528">
        <ele>262.37</ele>
        <time>2021-12-15T13:08:45.999Z</time>
      </trkpt>
      <trkpt lat="46.68248" lon="5.52785">
        <ele>262.57</ele>
        <time>2021-12-15T13:08:55.999Z</time>
      </trkpt>
      <trkpt lat="46.68245" lon="5.52771">
        <ele>262.66</ele>
        <time>2021-12-15T13:09:05.999Z</time>
      </trkpt>
      <trkpt lat="46.68242" lon="5.52759">
        <ele>263.28</ele>
        <time>2021-12-15T13:09:15.999Z</time>
      </trkpt>
      <trkpt lat="46.68241" lon="5.52743">
        <ele>264.17</ele>
        <time>2021-12-15T13:09:25.999Z</time>
      </trkpt>
      <trkpt lat="46.6824" lon="5.52726">
        <ele>266.04</ele>
        <time>2021-12-15T13:09:35.999Z</time>
      </trkpt>
      <trkpt lat="46.68239" lon="5.52714">
        <ele>266.95</ele>
        <time>2021-12-15T13:09:45.999Z</time>
      </trkpt>
      <trkpt lat="46.68236" lon="5.52699">
        <ele>266.86</ele>
        <time>2021-12-15T13:09:55.999Z</time>
      </trkpt>
      <trkpt lat="46.68234" lon="5.52689">
        <ele>266.38</ele>
        <time>2021-12-15T13:10:05.999Z</time>
      </trkpt>
      <trkpt lat="46.68235" lon="5.52677">
        <ele>267.64</ele>
        <time>2021-12-15T13:10:15.999Z</time>
      </trkpt>
      <trkpt lat="46.68235" lon="5.52675">
        <ele>267.84</ele>
        <time>2021-12-15T13:10:25.999Z</time>
      </trkpt>
      <trkpt lat="46.68229" lon="5.52662">
        <ele>268.63</ele>
        <time>2021-12-15T13:10:35.999Z</time>
      </trkpt>
      <trkpt lat="46.68225" lon="5.52647">
        <ele>269.54</ele>
        <time>2021-12-15T13:10:45.999Z</time>
      </trkpt>
      <trkpt lat="46.68219" lon="5.5263">
        <ele>267.05</ele>
        <time>2021-12-15T13:10:55.999Z</time>
      </trkpt>
      <trkpt lat="46.68214" lon="5.52611">
        <ele>265.3</ele>
        <time>2021-12-15T13:11:05.999Z</time>
      </trkpt>
      <trkpt lat="46.6821" lon="5.52599">
        <ele>265.08</ele>
        <time>2021-12-15T13:11:15.999Z</time>
      </trkpt>
      <trkpt lat="46.68206" lon="5.52594">
        <ele>264.6</ele>
        <time>2021-12-15T13:11:25.999Z</time>
      </trkpt>
      <trkpt lat="46.68201" lon="5.52592">
        <ele>264.3</ele>
        <time>2021-12-15T13:11:35.999Z</time>
      </trkpt>
      <trkpt lat="46.68188" lon="5.52583">
        <ele>265.82</ele>
        <time>2021-12-15T13:11:45.999Z</time>
      </trkpt>
      <trkpt lat="46.68186" lon="5.52581">
        <ele>265.89</ele>
        <time>2021-12-15T13:11:57.999Z</time>
      </trkpt>
      <trkpt lat="46.68171" lon="5.52565">
        <ele>266.98</ele>
        <time>2021-12-15T13:12:07.999Z</time>
      </trkpt>
      <trkpt lat="46.68162" lon="5.52553">
        <ele>267.51</ele>
        <time>2021-12-15T13:12:17.999Z</time>
      </trkpt>
      <trkpt lat="46.68151" lon="5.52548">
        <ele>268.5</ele>
        <time>2021-12-15T13:12:27.999Z</time>
      </trkpt>
      <trkpt lat="46.68142" lon="5.52542">
        <ele>270.64</ele>
        <time>2021-12-15T13:12:37.999Z</time>
      </trkpt>
      <trkpt lat="46.68134" lon="5.52533">
        <ele>269.8</ele>
        <time>2021-12-15T13:12:47.999Z</time>
      </trkpt>
      <trkpt lat="46.68126" lon="5.52523">
        <ele>268.1</ele>
        <time>2021-12-15T13:12:57.999Z</time>
      </trkpt>
      <trkpt lat="46.68122" lon="5.52518">
        <ele>268.12</ele>
        <time>2021-12-15T13:13:07.999Z</time>
      </trkpt>
      <trkpt lat="46.68114" lon="5.52511">
        <ele>267.92</ele>
        <time>2021-12-15T13:13:17.999Z</time>
      </trkpt>
      <trkpt lat="46.68104" lon="5.52499">
        <ele>268.94</ele>
        <time>2021-12-15T13:13:27.999Z</time>
      </trkpt>
      <trkpt lat="46.68096" lon="5.52486">
        <ele>268.19</ele>
        <time>2021-12-15T13:13:37.999Z</time>
      </trkpt>
      <trkpt lat="46.68087" lon="5.52477">
        <ele>266.54</ele>
        <time>2021-12-15T13:13:47.999Z</time>
      </trkpt>
      <trkpt lat="46.68078" lon="5.52468">
        <ele>263.31</ele>
        <time>2021-12-15T13:13:57.999Z</time>
      </trkpt>
      <trkpt lat="46.68071" lon="5.52462">
        <ele>261.01</ele>
        <time>2021-12-15T13:14:07.999Z</time>
      </trkpt>
      <trkpt lat="46.68063" lon="5.52456">
        <ele>260.71</ele>
        <time>2021-12-15T13:14:17.999Z</time>
      </trkpt>
      <trkpt lat="46.68055" lon="5.52448">
        <ele>260.59</ele>
        <time>2021-12-15T13:14:27.999Z</time>
      </trkpt>
      <trkpt lat="46.68047" lon="5.52443">
        <ele>263.33</ele>
        <time>2021-12-15T13:14:37.999Z</time>
      </trkpt>
      <trkpt lat="46.68044" lon="5.52441">
        <ele>263.97</ele>
        <time>2021-12-15T13:14:47.999Z</time>
      </trkpt>
      <trkpt lat="46.68037" lon="5.52439">
        <ele>264.46</ele>
        <time>2021-12-15T13:14:57.999Z</time>
      </trkpt>
      <trkpt lat="46.68025" lon="5.52436">
        <ele>264.66</ele>
        <time>2021-12-15T13:15:07.999Z</time>
      </trkpt>
      <trkpt lat="46.68017" lon="5.52433">
        <ele>264.14</ele>
        <time>2021-12-15T13:15:17.999Z</time>
      </trkpt>
      <trkpt lat="46.67997" lon="5.52428">
        <ele>262.74</ele>
        <time>2021-12-15T13:15:27.999Z</time>
      </trkpt>
      <trkpt lat="46.67986" lon="5.52427">
        <ele>262.13</ele>
        <time>2021-12-15T13:15:37.999Z</time>
      </trkpt>
      <trkpt lat="46.67976" lon="5.52427">
        <ele>262.6</ele>
        <time>2021-12-15T13:15:47.999Z</time>
      </trkpt>
      <trkpt lat="46.67964" lon="5.52428">
        <ele>262.29</ele>
        <time>2021-12-15T13:15:57.999Z</time>
      </trkpt>
      <trkpt lat="46.67955" lon="5.5243">
        <ele>261.11</ele>
        <time>2021-12-15T13:16:07.999Z</time>
      </trkpt>
      <trkpt lat="46.67944" lon="5.5243">
        <ele>261.7</ele>
        <time>2021-12-15T13:16:17.999Z</time>
      </trkpt>
      <trkpt lat="46.67932" lon="5.52433">
        <ele>260.33</ele>
        <time>2021-12-15T13:16:27.999Z</time>
      </trkpt>
      <trkpt lat="46.6792" lon="5.52435">
        <ele>258.16</ele>
        <time>2021-12-15T13:16:37.999Z</time>
      </trkpt>
      <trkpt lat="46.67911" lon="5.52445">
        <ele>257.94</ele>
        <time>2021-12-15T13:16:47.999Z</time>
      </trkpt>
      <trkpt lat="46.67902" lon="5.52451">
        <ele>256.35</ele>
        <time>2021-12-15T13:16:57.999Z</time>
      </trkpt>
      <trkpt lat="46.67897" lon="5.52457">
        <ele>255.78</ele>
        <time>2021-12-15T13:17:07.999Z</time>
      </trkpt>
      <trkpt lat="46.6789" lon="5.52462">
        <ele>255.22</ele>
        <time>2021-12-15T13:17:17.999Z</time>
      </trkpt>
      <trkpt lat="46.67883" lon="5.5246">
        <ele>255.02</ele>
        <time>2021-12-15T13:17:27.999Z</time>
      </trkpt>
      <trkpt lat="46.67872" lon="5.52456">
        <ele>253.44</ele>
        <time>2021-12-15T13:17:37.999Z</time>
      </trkpt>
      <trkpt lat="46.67861" lon="5.52453">
        <ele>249.16</ele>
        <time>2021-12-15T13:17:47.999Z</time>
      </trkpt>
      <trkpt lat="46.6785" lon="5.52455">
        <ele>245.37</ele>
        <time>2021-12-15T13:17:57.999Z</time>
      </trkpt>
      <trkpt lat="46.67842" lon="5.52457">
        <ele>243.31</ele>
        <time>2021-12-15T13:18:07.999Z</time>
      </trkpt>
      <trkpt lat="46.67837" lon="5.52463">
        <ele>242.87</ele>
        <time>2021-12-15T13:18:17.999Z</time>
      </trkpt>
      <trkpt lat="46.67835" lon="5.52465">
        <ele>242.82</ele>
        <time>2021-12-15T13:18:46.999Z</time>
      </trkpt>
      <trkpt lat="46.67829" lon="5.52472">
        <ele>242.64</ele>
        <time>2021-12-15T13:18:56.999Z</time>
      </trkpt>
      <trkpt lat="46.67821" lon="5.52474">
        <ele>242.87</ele>
        <time>2021-12-15T13:19:06.999Z</time>
      </trkpt>
      <trkpt lat="46.67816" lon="5.52479">
        <ele>241.53</ele>
        <time>2021-12-15T13:19:16.999Z</time>
      </trkpt>
      <trkpt lat="46.67815" lon="5.5248">
        <ele>241.34</ele>
        <time>2021-12-15T13:21:07.999Z</time>
      </trkpt>
      <trkpt lat="46.67811" lon="5.52485">
        <ele>240.87</ele>
        <time>2021-12-15T13:21:17.999Z</time>
      </trkpt>
      <trkpt lat="46.67807" lon="5.52502">
        <ele>242.27</ele>
        <time>2021-12-15T13:21:27.999Z</time>
      </trkpt>
      <trkpt lat="46.67808" lon="5.52518">
        <ele>241.6</ele>
        <time>2021-12-15T13:21:37.999Z</time>
      </trkpt>
      <trkpt lat="46.67807" lon="5.52529">
        <ele>239.6</ele>
        <time>2021-12-15T13:21:47.999Z</time>
      </trkpt>
      <trkpt lat="46.67802" lon="5.52547">
        <ele>237.81</ele>
        <time>2021-12-15T13:21:57.999Z</time>
      </trkpt>
      <trkpt lat="46.67795" lon="5.52567">
        <ele>238.65</ele>
        <time>2021-12-15T13:22:07.999Z</time>
      </trkpt>
      <trkpt lat="46.67789" lon="5.52581">
        <ele>239</ele>
        <time>2021-12-15T13:22:17.999Z</time>
      </trkpt>
      <trkpt lat="46.67777" lon="5.5258">
        <ele>240.89</ele>
        <time>2021-12-15T13:22:27.999Z</time>
      </trkpt>
      <trkpt lat="46.67768" lon="5.52571">
        <ele>239.43</ele>
        <time>2021-12-15T13:22:37.999Z</time>
      </trkpt>
      <trkpt lat="46.67758" lon="5.52562">
        <ele>238.95</ele>
        <time>2021-12-15T13:22:47.999Z</time>
      </trkpt>
      <trkpt lat="46.6775" lon="5.52552">
        <ele>238.78</ele>
        <time>2021-12-15T13:22:57.999Z</time>
      </trkpt>
      <trkpt lat="46.67742" lon="5.52545">
        <ele>238.74</ele>
        <time>2021-12-15T13:23:07.999Z</time>
      </trkpt>
      <trkpt lat="46.67731" lon="5.52546">
        <ele>239.34</ele>
        <time>2021-12-15T13:23:17.999Z</time>
      </trkpt>
      <trkpt lat="46.67716" lon="5.52542">
        <ele>238.27</ele>
        <time>2021-12-15T13:23:27.999Z</time>
      </trkpt>
      <trkpt lat="46.67705" lon="5.52536">
        <ele>237.08</ele>
        <time>2021-12-15T13:23:37.999Z</time>
      </trkpt>
      <trkpt lat="46.67694" lon="5.52529">
        <ele>239.09</ele>
        <time>2021-12-15T13:23:47.999Z</time>
      </trkpt>
      <trkpt lat="46.67685" lon="5.52522">
        <ele>238.42</ele>
        <time>2021-12-15T13:23:57.999Z</time>
      </trkpt>
      <trkpt lat="46.67674" lon="5.52517">
        <ele>239.34</ele>
        <time>2021-12-15T13:24:07.999Z</time>
      </trkpt>
      <trkpt lat="46.67661" lon="5.52513">
        <ele>241.45</ele>
        <time>2021-12-15T13:24:17.999Z</time>
      </trkpt>
      <trkpt lat="46.6765" lon="5.52511">
        <ele>241.49</ele>
        <time>2021-12-15T13:24:27.999Z</time>
      </trkpt>
      <trkpt lat="46.67642" lon="5.52506">
        <ele>239.91</ele>
        <time>2021-12-15T13:24:37.999Z</time>
      </trkpt>
      <trkpt lat="46.67629" lon="5.52496">
        <ele>239.31</ele>
        <time>2021-12-15T13:24:47.999Z</time>
      </trkpt>
      <trkpt lat="46.6762" lon="5.52496">
        <ele>238.18</ele>
        <time>2021-12-15T13:24:57.999Z</time>
      </trkpt>
      <trkpt lat="46.67615" lon="5.52485">
        <ele>239.11</ele>
        <time>2021-12-15T13:25:07.999Z</time>
      </trkpt>
      <trkpt lat="46.6761" lon="5.5247">
        <ele>238.58</ele>
        <time>2021-12-15T13:25:17.999Z</time>
      </trkpt>
      <trkpt lat="46.676" lon="5.52466">
        <ele>238.79</ele>
        <time>2021-12-15T13:25:27.999Z</time>
      </trkpt>
      <trkpt lat="46.67591" lon="5.5246">
        <ele>238.55</ele>
        <time>2021-12-15T13:25:37.999Z</time>
      </trkpt>
      <trkpt lat="46.67579" lon="5.52452">
        <ele>239.23</ele>
        <time>2021-12-15T13:25:47.999Z</time>
      </trkpt>
      <trkpt lat="46.67567" lon="5.52445">
        <ele>241.85</ele>
        <time>2021-12-15T13:25:57.999Z</time>
      </trkpt>
      <trkpt lat="46.67557" lon="5.5244">
        <ele>244.89</ele>
        <time>2021-12-15T13:26:07.999Z</time>
      </trkpt>
      <trkpt lat="46.67547" lon="5.52438">
        <ele>245.6</ele>
        <time>2021-12-15T13:26:17.999Z</time>
      </trkpt>
      <trkpt lat="46.67536" lon="5.52439">
        <ele>243.64</ele>
        <time>2021-12-15T13:26:27.999Z</time>
      </trkpt>
      <trkpt lat="46.67525" lon="5.52441">
        <ele>242.84</ele>
        <time>2021-12-15T13:26:37.999Z</time>
      </trkpt>
      <trkpt lat="46.67518" lon="5.52431">
        <ele>242.23</ele>
        <time>2021-12-15T13:26:47.999Z</time>
      </trkpt>
      <trkpt lat="46.67513" lon="5.52415">
        <ele>240.68</ele>
        <time>2021-12-15T13:26:57.999Z</time>
      </trkpt>
      <trkpt lat="46.67511" lon="5.52399">
        <ele>239.27</ele>
        <time>2021-12-15T13:27:07.999Z</time>
      </trkpt>
      <trkpt lat="46.67509" lon="5.52382">
        <ele>238.58</ele>
        <time>2021-12-15T13:27:17.999Z</time>
      </trkpt>
      <trkpt lat="46.67506" lon="5.52366">
        <ele>239.03</ele>
        <time>2021-12-15T13:27:27.999Z</time>
      </trkpt>
      <trkpt lat="46.67501" lon="5.52351">
        <ele>239.78</ele>
        <time>2021-12-15T13:27:37.999Z</time>
      </trkpt>
      <trkpt lat="46.67495" lon="5.52336">
        <ele>240.25</ele>
        <time>2021-12-15T13:27:47.999Z</time>
      </trkpt>
      <trkpt lat="46.67488" lon="5.5232">
        <ele>240.4</ele>
        <time>2021-12-15T13:27:57.999Z</time>
      </trkpt>
      <trkpt lat="46.67488" lon="5.52309">
        <ele>240.38</ele>
        <time>2021-12-15T13:28:07.999Z</time>
      </trkpt>
      <trkpt lat="46.67484" lon="5.52297">
        <ele>239.58</ele>
        <time>2021-12-15T13:28:17.999Z</time>
      </trkpt>
      <trkpt lat="46.67476" lon="5.52285">
        <ele>239.58</ele>
        <time>2021-12-15T13:28:27.999Z</time>
      </trkpt>
      <trkpt lat="46.6747" lon="5.52269">
        <ele>240.52</ele>
        <time>2021-12-15T13:28:37.999Z</time>
      </trkpt>
      <trkpt lat="46.67465" lon="5.52257">
        <ele>241.08</ele>
        <time>2021-12-15T13:28:47.999Z</time>
      </trkpt>
      <trkpt lat="46.67461" lon="5.52245">
        <ele>239.93</ele>
        <time>2021-12-15T13:28:57.999Z</time>
      </trkpt>
      <trkpt lat="46.67459" lon="5.52233">
        <ele>239.82</ele>
        <time>2021-12-15T13:29:07.999Z</time>
      </trkpt>
      <trkpt lat="46.67455" lon="5.52219">
        <ele>239.74</ele>
        <time>2021-12-15T13:29:17.999Z</time>
      </trkpt>
      <trkpt lat="46.67453" lon="5.52207">
        <ele>241.39</ele>
        <time>2021-12-15T13:29:27.999Z</time>
      </trkpt>
      <trkpt lat="46.67449" lon="5.52194">
        <ele>242.76</ele>
        <time>2021-12-15T13:29:37.999Z</time>
      </trkpt>
      <trkpt lat="46.67445" lon="5.52181">
        <ele>244.21</ele>
        <time>2021-12-15T13:29:47.999Z</time>
      </trkpt>
      <trkpt lat="46.67441" lon="5.52167">
        <ele>244.32</ele>
        <time>2021-12-15T13:29:57.999Z</time>
      </trkpt>
      <trkpt lat="46.67438" lon="5.52154">
        <ele>245.5</ele>
        <time>2021-12-15T13:30:07.999Z</time>
      </trkpt>
      <trkpt lat="46.67433" lon="5.52141">
        <ele>247.05</ele>
        <time>2021-12-15T13:30:17.999Z</time>
      </trkpt>
      <trkpt lat="46.6743" lon="5.52134">
        <ele>247.78</ele>
        <time>2021-12-15T13:30:27.999Z</time>
      </trkpt>
      <trkpt lat="46.67429" lon="5.52131">
        <ele>248.12</ele>
        <time>2021-12-15T13:30:37.999Z</time>
      </trkpt>
      <trkpt lat="46.67429" lon="5.52129">
        <ele>248.59</ele>
        <time>2021-12-15T13:30:47.999Z</time>
      </trkpt>
      <trkpt lat="46.6743" lon="5.52125">
        <ele>248.47</ele>
        <time>2021-12-15T13:31:03.999Z</time>
      </trkpt>
      <trkpt lat="46.67431" lon="5.52116">
        <ele>248.84</ele>
        <time>2021-12-15T13:31:13.999Z</time>
      </trkpt>
      <trkpt lat="46.67432" lon="5.52089">
        <ele>249.82</ele>
        <time>2021-12-15T13:31:42.999Z</time>
      </trkpt>
      <trkpt lat="46.67434" lon="5.52049">
        <ele>252.34</ele>
        <time>2021-12-15T13:31:52.999Z</time>
      </trkpt>
      <trkpt lat="46.67436" lon="5.52033">
        <ele>254.23</ele>
        <time>2021-12-15T13:32:02.999Z</time>
      </trkpt>
      <trkpt lat="46.67436" lon="5.52032">
        <ele>254.36</ele>
        <time>2021-12-15T13:32:14.999Z</time>
      </trkpt>
      <trkpt lat="46.67439" lon="5.5202">
        <ele>257.76</ele>
        <time>2021-12-15T13:32:24.999Z</time>
      </trkpt>
      <trkpt lat="46.67439" lon="5.52018">
        <ele>257.86</ele>
        <time>2021-12-15T13:34:25.999Z</time>
      </trkpt>
      <trkpt lat="46.67436" lon="5.52013">
        <ele>258.41</ele>
        <time>2021-12-15T13:34:35.999Z</time>
      </trkpt>
      <trkpt lat="46.67436" lon="5.52011">
        <ele>258.69</ele>
        <time>2021-12-15T13:37:30.999Z</time>
      </trkpt>
      <trkpt lat="46.67439" lon="5.51987">
        <ele>261.16</ele>
        <time>2021-12-15T13:37:40.999Z</time>
      </trkpt>
      <trkpt lat="46.67441" lon="5.51982">
        <ele>261.66</ele>
        <time>2021-12-15T13:37:50.999Z</time>
      </trkpt>
      <trkpt lat="46.67448" lon="5.51966">
        <ele>262.34</ele>
        <time>2021-12-15T13:38:00.999Z</time>
      </trkpt>
      <trkpt lat="46.67455" lon="5.51941">
        <ele>264.34</ele>
        <time>2021-12-15T13:38:10.999Z</time>
      </trkpt>
      <trkpt lat="46.67458" lon="5.51927">
        <ele>265.14</ele>
        <time>2021-12-15T13:38:20.999Z</time>
      </trkpt>
      <trkpt lat="46.67461" lon="5.51915">
        <ele>263.54</ele>
        <time>2021-12-15T13:38:30.999Z</time>
      </trkpt>
      <trkpt lat="46.67465" lon="5.51893">
        <ele>258.77</ele>
        <time>2021-12-15T13:38:40.999Z</time>
      </trkpt>
      <trkpt lat="46.6747" lon="5.51881">
        <ele>258.88</ele>
        <time>2021-12-15T13:38:50.999Z</time>
      </trkpt>
      <trkpt lat="46.67473" lon="5.51874">
        <ele>259.34</ele>
        <time>2021-12-15T13:39:00.999Z</time>
      </trkpt>
      <trkpt lat="46.67481" lon="5.51852">
        <ele>261.46</ele>
        <time>2021-12-15T13:39:10.999Z</time>
      </trkpt>
      <trkpt lat="46.67487" lon="5.51833">
        <ele>262.16</ele>
        <time>2021-12-15T13:39:20.999Z</time>
      </trkpt>
      <trkpt lat="46.67487" lon="5.51823">
        <ele>261.36</ele>
        <time>2021-12-15T13:39:30.999Z</time>
      </trkpt>
      <trkpt lat="46.67489" lon="5.51814">
        <ele>260.74</ele>
        <time>2021-12-15T13:39:40.999Z</time>
      </trkpt>
      <trkpt lat="46.67497" lon="5.51788">
        <ele>260.97</ele>
        <time>2021-12-15T13:39:50.999Z</time>
      </trkpt>
      <trkpt lat="46.67502" lon="5.5176">
        <ele>260.2</ele>
        <time>2021-12-15T13:40:00.999Z</time>
      </trkpt>
      <trkpt lat="46.67505" lon="5.51745">
        <ele>258.25</ele>
        <time>2021-12-15T13:40:10.999Z</time>
      </trkpt>
      <trkpt lat="46.67511" lon="5.51728">
        <ele>256.78</ele>
        <time>2021-12-15T13:40:20.999Z</time>
      </trkpt>
      <trkpt lat="46.67516" lon="5.51709">
        <ele>255.38</ele>
        <time>2021-12-15T13:40:30.999Z</time>
      </trkpt>
      <trkpt lat="46.67517" lon="5.51692">
        <ele>253.27</ele>
        <time>2021-12-15T13:40:40.999Z</time>
      </trkpt>
      <trkpt lat="46.67521" lon="5.51678">
        <ele>254.03</ele>
        <time>2021-12-15T13:40:50.999Z</time>
      </trkpt>
      <trkpt lat="46.67522" lon="5.51663">
        <ele>254.18</ele>
        <time>2021-12-15T13:41:00.999Z</time>
      </trkpt>
      <trkpt lat="46.67523" lon="5.51649">
        <ele>254.34</ele>
        <time>2021-12-15T13:41:10.999Z</time>
      </trkpt>
      <trkpt lat="46.67526" lon="5.51622">
        <ele>256.3</ele>
        <time>2021-12-15T13:41:20.999Z</time>
      </trkpt>
      <trkpt lat="46.67528" lon="5.51612">
        <ele>257.01</ele>
        <time>2021-12-15T13:41:30.999Z</time>
      </trkpt>
      <trkpt lat="46.67529" lon="5.51607">
        <ele>256.94</ele>
        <time>2021-12-15T13:41:47.999Z</time>
      </trkpt>
      <trkpt lat="46.67534" lon="5.5157">
        <ele>258.43</ele>
        <time>2021-12-15T13:41:57.999Z</time>
      </trkpt>
      <trkpt lat="46.67536" lon="5.51539">
        <ele>258.99</ele>
        <time>2021-12-15T13:42:07.999Z</time>
      </trkpt>
      <trkpt lat="46.67538" lon="5.5152">
        <ele>258.09</ele>
        <time>2021-12-15T13:42:17.999Z</time>
      </trkpt>
      <trkpt lat="46.6754" lon="5.51504">
        <ele>258.93</ele>
        <time>2021-12-15T13:42:27.999Z</time>
      </trkpt>
      <trkpt lat="46.67541" lon="5.51487">
        <ele>258.04</ele>
        <time>2021-12-15T13:42:37.999Z</time>
      </trkpt>
      <trkpt lat="46.67543" lon="5.51469">
        <ele>254.33</ele>
        <time>2021-12-15T13:42:47.999Z</time>
      </trkpt>
      <trkpt lat="46.67544" lon="5.51455">
        <ele>253.25</ele>
        <time>2021-12-15T13:42:57.999Z</time>
      </trkpt>
      <trkpt lat="46.67546" lon="5.51439">
        <ele>253.52</ele>
        <time>2021-12-15T13:43:07.999Z</time>
      </trkpt>
      <trkpt lat="46.6755" lon="5.5142">
        <ele>254.38</ele>
        <time>2021-12-15T13:43:17.999Z</time>
      </trkpt>
      <trkpt lat="46.67549" lon="5.51402">
        <ele>254.42</ele>
        <time>2021-12-15T13:43:27.999Z</time>
      </trkpt>
      <trkpt lat="46.67549" lon="5.51397">
        <ele>254.27</ele>
        <time>2021-12-15T13:43:37.999Z</time>
      </trkpt>
      <trkpt lat="46.67546" lon="5.51365">
        <ele>254.28</ele>
        <time>2021-12-15T13:43:47.999Z</time>
      </trkpt>
      <trkpt lat="46.67543" lon="5.5135">
        <ele>256.4</ele>
        <time>2021-12-15T13:43:57.999Z</time>
      </trkpt>
      <trkpt lat="46.67538" lon="5.51337">
        <ele>254.45</ele>
        <time>2021-12-15T13:44:07.999Z</time>
      </trkpt>
      <trkpt lat="46.67532" lon="5.51318">
        <ele>252.12</ele>
        <time>2021-12-15T13:44:17.999Z</time>
      </trkpt>
      <trkpt lat="46.67529" lon="5.51301">
        <ele>254.26</ele>
        <time>2021-12-15T13:44:27.999Z</time>
      </trkpt>
      <trkpt lat="46.67526" lon="5.51284">
        <ele>253.82</ele>
        <time>2021-12-15T13:44:37.999Z</time>
      </trkpt>
      <trkpt lat="46.67519" lon="5.51273">
        <ele>253.2</ele>
        <time>2021-12-15T13:44:47.999Z</time>
      </trkpt>
      <trkpt lat="46.67508" lon="5.51269">
        <ele>253.23</ele>
        <time>2021-12-15T13:44:57.999Z</time>
      </trkpt>
      <trkpt lat="46.67498" lon="5.51265">
        <ele>253.95</ele>
        <time>2021-12-15T13:45:07.999Z</time>
      </trkpt>
      <trkpt lat="46.67489" lon="5.51258">
        <ele>253.71</ele>
        <time>2021-12-15T13:45:17.999Z</time>
      </trkpt>
      <trkpt lat="46.6748" lon="5.51249">
        <ele>254.09</ele>
        <time>2021-12-15T13:45:27.999Z</time>
      </trkpt>
      <trkpt lat="46.67471" lon="5.51241">
        <ele>253.35</ele>
        <time>2021-12-15T13:45:37.999Z</time>
      </trkpt>
      <trkpt lat="46.67462" lon="5.51233">
        <ele>253.75</ele>
        <time>2021-12-15T13:45:47.999Z</time>
      </trkpt>
      <trkpt lat="46.67453" lon="5.51226">
        <ele>252.96</ele>
        <time>2021-12-15T13:45:57.999Z</time>
      </trkpt>
      <trkpt lat="46.67444" lon="5.51218">
        <ele>254.05</ele>
        <time>2021-12-15T13:46:07.999Z</time>
      </trkpt>
      <trkpt lat="46.67435" lon="5.51211">
        <ele>253.7</ele>
        <time>2021-12-15T13:46:17.999Z</time>
      </trkpt>
      <trkpt lat="46.67425" lon="5.51202">
        <ele>254.02</ele>
        <time>2021-12-15T13:46:27.999Z</time>
      </trkpt>
      <trkpt lat="46.67415" lon="5.51194">
        <ele>255.76</ele>
        <time>2021-12-15T13:46:37.999Z</time>
      </trkpt>
      <trkpt lat="46.67405" lon="5.51187">
        <ele>257.4</ele>
        <time>2021-12-15T13:46:47.999Z</time>
      </trkpt>
      <trkpt lat="46.67395" lon="5.51179">
        <ele>258.42</ele>
        <time>2021-12-15T13:46:57.999Z</time>
      </trkpt>
      <trkpt lat="46.67386" lon="5.51174">
        <ele>260.8</ele>
        <time>2021-12-15T13:47:07.999Z</time>
      </trkpt>
      <trkpt lat="46.67378" lon="5.51171">
        <ele>261.14</ele>
        <time>2021-12-15T13:47:17.999Z</time>
      </trkpt>
      <trkpt lat="46.67367" lon="5.5117">
        <ele>261.77</ele>
        <time>2021-12-15T13:47:27.999Z</time>
      </trkpt>
      <trkpt lat="46.67359" lon="5.51175">
        <ele>261.61</ele>
        <time>2021-12-15T13:47:37.999Z</time>
      </trkpt>
      <trkpt lat="46.67353" lon="5.51176">
        <ele>262.78</ele>
        <time>2021-12-15T13:47:47.999Z</time>
      </trkpt>
      <trkpt lat="46.67345" lon="5.51176">
        <ele>264.06</ele>
        <time>2021-12-15T13:47:57.999Z</time>
      </trkpt>
      <trkpt lat="46.6733" lon="5.51175">
        <ele>265.76</ele>
        <time>2021-12-15T13:48:07.999Z</time>
      </trkpt>
      <trkpt lat="46.6732" lon="5.51173">
        <ele>266.83</ele>
        <time>2021-12-15T13:48:17.999Z</time>
      </trkpt>
      <trkpt lat="46.67316" lon="5.51173">
        <ele>267.78</ele>
        <time>2021-12-15T13:48:27.999Z</time>
      </trkpt>
      <trkpt lat="46.67315" lon="5.51173">
        <ele>267.83</ele>
        <time>2021-12-15T13:48:37.999Z</time>
      </trkpt>
      <trkpt lat="46.67297" lon="5.51171">
        <ele>268.38</ele>
        <time>2021-12-15T13:48:47.999Z</time>
      </trkpt>
      <trkpt lat="46.67285" lon="5.51166">
        <ele>270.64</ele>
        <time>2021-12-15T13:48:57.999Z</time>
      </trkpt>
      <trkpt lat="46.67272" lon="5.51162">
        <ele>271.56</ele>
        <time>2021-12-15T13:49:07.999Z</time>
      </trkpt>
      <trkpt lat="46.67262" lon="5.51157">
        <ele>270.89</ele>
        <time>2021-12-15T13:49:17.999Z</time>
      </trkpt>
      <trkpt lat="46.67251" lon="5.51157">
        <ele>270.27</ele>
        <time>2021-12-15T13:49:27.999Z</time>
      </trkpt>
      <trkpt lat="46.67243" lon="5.51154">
        <ele>270.28</ele>
        <time>2021-12-15T13:49:37.999Z</time>
      </trkpt>
      <trkpt lat="46.67232" lon="5.51149">
        <ele>270.15</ele>
        <time>2021-12-15T13:49:47.999Z</time>
      </trkpt>
      <trkpt lat="46.67222" lon="5.51145">
        <ele>270.08</ele>
        <time>2021-12-15T13:49:57.999Z</time>
      </trkpt>
      <trkpt lat="46.6721" lon="5.51138">
        <ele>270.83</ele>
        <time>2021-12-15T13:50:07.999Z</time>
      </trkpt>
      <trkpt lat="46.67199" lon="5.51129">
        <ele>272.67</ele>
        <time>2021-12-15T13:50:17.999Z</time>
      </trkpt>
      <trkpt lat="46.67186" lon="5.51119">
        <ele>274.04</ele>
        <time>2021-12-15T13:50:27.999Z</time>
      </trkpt>
      <trkpt lat="46.67176" lon="5.51112">
        <ele>273.11</ele>
        <time>2021-12-15T13:50:37.999Z</time>
      </trkpt>
      <trkpt lat="46.67167" lon="5.51106">
        <ele>273.24</ele>
        <time>2021-12-15T13:50:47.999Z</time>
      </trkpt>
      <trkpt lat="46.67164" lon="5.51104">
        <ele>273.51</ele>
        <time>2021-12-15T13:50:57.999Z</time>
      </trkpt>
      <trkpt lat="46.67165" lon="5.51102">
        <ele>273.17</ele>
        <time>2021-12-15T13:52:27.999Z</time>
      </trkpt>
      <trkpt lat="46.67165" lon="5.51104">
        <ele>273.01</ele>
        <time>2021-12-15T13:53:03.999Z</time>
      </trkpt>
      <trkpt lat="46.67164" lon="5.51104">
        <ele>272.83</ele>
        <time>2021-12-15T13:54:18.999Z</time>
      </trkpt>
      <trkpt lat="46.67155" lon="5.51099">
        <ele>272.17</ele>
        <time>2021-12-15T13:54:28.999Z</time>
      </trkpt>
      <trkpt lat="46.67144" lon="5.51091">
        <ele>272.9</ele>
        <time>2021-12-15T13:54:38.999Z</time>
      </trkpt>
      <trkpt lat="46.67133" lon="5.51081">
        <ele>273.26</ele>
        <time>2021-12-15T13:54:48.999Z</time>
      </trkpt>
      <trkpt lat="46.67123" lon="5.51073">
        <ele>273.57</ele>
        <time>2021-12-15T13:54:58.999Z</time>
      </trkpt>
      <trkpt lat="46.67113" lon="5.51067">
        <ele>273.06</ele>
        <time>2021-12-15T13:55:08.999Z</time>
      </trkpt>
      <trkpt lat="46.67102" lon="5.51066">
        <ele>274.88</ele>
        <time>2021-12-15T13:55:18.999Z</time>
      </trkpt>
      <trkpt lat="46.6709" lon="5.51068">
        <ele>273.36</ele>
        <time>2021-12-15T13:55:28.999Z</time>
      </trkpt>
      <trkpt lat="46.6708" lon="5.5107">
        <ele>272.72</ele>
        <time>2021-12-15T13:55:38.999Z</time>
      </trkpt>
      <trkpt lat="46.67069" lon="5.51071">
        <ele>272.94</ele>
        <time>2021-12-15T13:55:48.999Z</time>
      </trkpt>
      <trkpt lat="46.6706" lon="5.51073">
        <ele>273.49</ele>
        <time>2021-12-15T13:55:58.999Z</time>
      </trkpt>
      <trkpt lat="46.67047" lon="5.51076">
        <ele>272.54</ele>
        <time>2021-12-15T13:56:08.999Z</time>
      </trkpt>
      <trkpt lat="46.67035" lon="5.51081">
        <ele>272.64</ele>
        <time>2021-12-15T13:56:18.999Z</time>
      </trkpt>
      <trkpt lat="46.67025" lon="5.51084">
        <ele>272.77</ele>
        <time>2021-12-15T13:56:28.999Z</time>
      </trkpt>
      <trkpt lat="46.67013" lon="5.51087">
        <ele>273.44</ele>
        <time>2021-12-15T13:56:38.999Z</time>
      </trkpt>
      <trkpt lat="46.67003" lon="5.5109">
        <ele>272.13</ele>
        <time>2021-12-15T13:56:48.999Z</time>
      </trkpt>
      <trkpt lat="46.66993" lon="5.51093">
        <ele>270.98</ele>
        <time>2021-12-15T13:56:58.999Z</time>
      </trkpt>
      <trkpt lat="46.66982" lon="5.51097">
        <ele>270.79</ele>
        <time>2021-12-15T13:57:08.999Z</time>
      </trkpt>
      <trkpt lat="46.66971" lon="5.51101">
        <ele>270.5</ele>
        <time>2021-12-15T13:57:18.999Z</time>
      </trkpt>
      <trkpt lat="46.66959" lon="5.51106">
        <ele>270.01</ele>
        <time>2021-12-15T13:57:28.999Z</time>
      </trkpt>
      <trkpt lat="46.66947" lon="5.5111">
        <ele>269.29</ele>
        <time>2021-12-15T13:57:38.999Z</time>
      </trkpt>
      <trkpt lat="46.66936" lon="5.51114">
        <ele>267.48</ele>
        <time>2021-12-15T13:57:48.999Z</time>
      </trkpt>
      <trkpt lat="46.66926" lon="5.51118">
        <ele>265.08</ele>
        <time>2021-12-15T13:57:58.999Z</time>
      </trkpt>
      <trkpt lat="46.66914" lon="5.51121">
        <ele>265.23</ele>
        <time>2021-12-15T13:58:08.999Z</time>
      </trkpt>
      <trkpt lat="46.66901" lon="5.51125">
        <ele>266.72</ele>
        <time>2021-12-15T13:58:18.999Z</time>
      </trkpt>
      <trkpt lat="46.66889" lon="5.5113">
        <ele>266.91</ele>
        <time>2021-12-15T13:58:28.999Z</time>
      </trkpt>
      <trkpt lat="46.66879" lon="5.51135">
        <ele>266.61</ele>
        <time>2021-12-15T13:58:38.999Z</time>
      </trkpt>
      <trkpt lat="46.66868" lon="5.51141">
        <ele>266.11</ele>
        <time>2021-12-15T13:58:48.999Z</time>
      </trkpt>
      <trkpt lat="46.66859" lon="5.51147">
        <ele>266.65</ele>
        <time>2021-12-15T13:58:58.999Z</time>
      </trkpt>
      <trkpt lat="46.66848" lon="5.51153">
        <ele>267.27</ele>
        <time>2021-12-15T13:59:08.999Z</time>
      </trkpt>
      <trkpt lat="46.66838" lon="5.51162">
        <ele>267.05</ele>
        <time>2021-12-15T13:59:18.999Z</time>
      </trkpt>
      <trkpt lat="46.66827" lon="5.51169">
        <ele>267.88</ele>
        <time>2021-12-15T13:59:28.999Z</time>
      </trkpt>
      <trkpt lat="46.66817" lon="5.51175">
        <ele>268.2</ele>
        <time>2021-12-15T13:59:38.999Z</time>
      </trkpt>
      <trkpt lat="46.66805" lon="5.51184">
        <ele>267.89</ele>
        <time>2021-12-15T13:59:48.999Z</time>
      </trkpt>
      <trkpt lat="46.66795" lon="5.51191">
        <ele>267.81</ele>
        <time>2021-12-15T13:59:58.999Z</time>
      </trkpt>
      <trkpt lat="46.66786" lon="5.51197">
        <ele>268.13</ele>
        <time>2021-12-15T14:00:08.999Z</time>
      </trkpt>
      <trkpt lat="46.66775" lon="5.51203">
        <ele>268.77</ele>
        <time>2021-12-15T14:00:18.999Z</time>
      </trkpt>
      <trkpt lat="46.66764" lon="5.51206">
        <ele>268.59</ele>
        <time>2021-12-15T14:00:28.999Z</time>
      </trkpt>
      <trkpt lat="46.66751" lon="5.51211">
        <ele>269.32</ele>
        <time>2021-12-15T14:00:38.999Z</time>
      </trkpt>
      <trkpt lat="46.66741" lon="5.51214">
        <ele>269.73</ele>
        <time>2021-12-15T14:00:48.999Z</time>
      </trkpt>
      <trkpt lat="46.66727" lon="5.51221">
        <ele>268.28</ele>
        <time>2021-12-15T14:00:58.999Z</time>
      </trkpt>
      <trkpt lat="46.66721" lon="5.51223">
        <ele>268.02</ele>
        <time>2021-12-15T14:01:08.999Z</time>
      </trkpt>
      <trkpt lat="46.66715" lon="5.51224">
        <ele>268.48</ele>
        <time>2021-12-15T14:01:18.999Z</time>
      </trkpt>
      <trkpt lat="46.66709" lon="5.51225">
        <ele>267.54</ele>
        <time>2021-12-15T14:01:28.999Z</time>
      </trkpt>
      <trkpt lat="46.66702" lon="5.5122">
        <ele>269.17</ele>
        <time>2021-12-15T14:01:38.999Z</time>
      </trkpt>
      <trkpt lat="46.66699" lon="5.51211">
        <ele>269.68</ele>
        <time>2021-12-15T14:01:48.999Z</time>
      </trkpt>
      <trkpt lat="46.66698" lon="5.51207">
        <ele>269.65</ele>
        <time>2021-12-15T14:01:58.999Z</time>
      </trkpt>
      <trkpt lat="46.66693" lon="5.51193">
        <ele>268.16</ele>
        <time>2021-12-15T14:02:08.999Z</time>
      </trkpt>
      <trkpt lat="46.66687" lon="5.51187">
        <ele>267.73</ele>
        <time>2021-12-15T14:02:18.999Z</time>
      </trkpt>
      <trkpt lat="46.66675" lon="5.51178">
        <ele>267.59</ele>
        <time>2021-12-15T14:02:28.999Z</time>
      </trkpt>
      <trkpt lat="46.66672" lon="5.51177">
        <ele>267.18</ele>
        <time>2021-12-15T14:02:40.999Z</time>
      </trkpt>
      <trkpt lat="46.66653" lon="5.51168">
        <ele>266.11</ele>
        <time>2021-12-15T14:02:50.999Z</time>
      </trkpt>
      <trkpt lat="46.66651" lon="5.51167">
        <ele>265.96</ele>
        <time>2021-12-15T14:03:07.999Z</time>
      </trkpt>
      <trkpt lat="46.66642" lon="5.51165">
        <ele>264.63</ele>
        <time>2021-12-15T14:03:17.999Z</time>
      </trkpt>
      <trkpt lat="46.66622" lon="5.51159">
        <ele>263.42</ele>
        <time>2021-12-15T14:03:27.999Z</time>
      </trkpt>
      <trkpt lat="46.66612" lon="5.51155">
        <ele>263.19</ele>
        <time>2021-12-15T14:03:37.999Z</time>
      </trkpt>
      <trkpt lat="46.66601" lon="5.51153">
        <ele>264.18</ele>
        <time>2021-12-15T14:03:47.999Z</time>
      </trkpt>
      <trkpt lat="46.66597" lon="5.51152">
        <ele>263.4</ele>
        <time>2021-12-15T14:03:57.999Z</time>
      </trkpt>
      <trkpt lat="46.66583" lon="5.5115">
        <ele>262.52</ele>
        <time>2021-12-15T14:04:07.999Z</time>
      </trkpt>
      <trkpt lat="46.66573" lon="5.51147">
        <ele>261.52</ele>
        <time>2021-12-15T14:04:17.999Z</time>
      </trkpt>
      <trkpt lat="46.66564" lon="5.51144">
        <ele>259.65</ele>
        <time>2021-12-15T14:04:27.999Z</time>
      </trkpt>
      <trkpt lat="46.66556" lon="5.51143">
        <ele>257.7</ele>
        <time>2021-12-15T14:04:37.999Z</time>
      </trkpt>
      <trkpt lat="46.66547" lon="5.51143">
        <ele>255.84</ele>
        <time>2021-12-15T14:04:47.999Z</time>
      </trkpt>
      <trkpt lat="46.66536" lon="5.51139">
        <ele>253.61</ele>
        <time>2021-12-15T14:04:57.999Z</time>
      </trkpt>
      <trkpt lat="46.66529" lon="5.51132">
        <ele>252.71</ele>
        <time>2021-12-15T14:05:07.999Z</time>
      </trkpt>
      <trkpt lat="46.66519" lon="5.51125">
        <ele>253.57</ele>
        <time>2021-12-15T14:05:17.999Z</time>
      </trkpt>
      <trkpt lat="46.66505" lon="5.51121">
        <ele>254.68</ele>
        <time>2021-12-15T14:05:27.999Z</time>
      </trkpt>
      <trkpt lat="46.66496" lon="5.51117">
        <ele>253.72</ele>
        <time>2021-12-15T14:05:37.999Z</time>
      </trkpt>
      <trkpt lat="46.66485" lon="5.51112">
        <ele>252.52</ele>
        <time>2021-12-15T14:05:47.999Z</time>
      </trkpt>
      <trkpt lat="46.66475" lon="5.51108">
        <ele>252.05</ele>
        <time>2021-12-15T14:05:57.999Z</time>
      </trkpt>
      <trkpt lat="46.66466" lon="5.51104">
        <ele>251.03</ele>
        <time>2021-12-15T14:06:07.999Z</time>
      </trkpt>
      <trkpt lat="46.66462" lon="5.5111">
        <ele>250.99</ele>
        <time>2021-12-15T14:06:17.999Z</time>
      </trkpt>
      <trkpt lat="46.66449" lon="5.51127">
        <ele>250.21</ele>
        <time>2021-12-15T14:06:27.999Z</time>
      </trkpt>
      <trkpt lat="46.66443" lon="5.51145">
        <ele>249.12</ele>
        <time>2021-12-15T14:06:37.999Z</time>
      </trkpt>
      <trkpt lat="46.66434" lon="5.51156">
        <ele>248.61</ele>
        <time>2021-12-15T14:06:47.999Z</time>
      </trkpt>
      <trkpt lat="46.66419" lon="5.51164">
        <ele>245.98</ele>
        <time>2021-12-15T14:06:57.999Z</time>
      </trkpt>
      <trkpt lat="46.66409" lon="5.5117">
        <ele>243.96</ele>
        <time>2021-12-15T14:07:07.999Z</time>
      </trkpt>
      <trkpt lat="46.66403" lon="5.51175">
        <ele>243.31</ele>
        <time>2021-12-15T14:07:17.999Z</time>
      </trkpt>
      <trkpt lat="46.66397" lon="5.5118">
        <ele>244.32</ele>
        <time>2021-12-15T14:07:27.999Z</time>
      </trkpt>
      <trkpt lat="46.66385" lon="5.51187">
        <ele>246.26</ele>
        <time>2021-12-15T14:07:37.999Z</time>
      </trkpt>
      <trkpt lat="46.6637" lon="5.51195">
        <ele>247.34</ele>
        <time>2021-12-15T14:07:47.999Z</time>
      </trkpt>
      <trkpt lat="46.66357" lon="5.51204">
        <ele>249.42</ele>
        <time>2021-12-15T14:07:57.999Z</time>
      </trkpt>
      <trkpt lat="46.66344" lon="5.51207">
        <ele>247.79</ele>
        <time>2021-12-15T14:08:07.999Z</time>
      </trkpt>
      <trkpt lat="46.66333" lon="5.5121">
        <ele>248.71</ele>
        <time>2021-12-15T14:08:17.999Z</time>
      </trkpt>
      <trkpt lat="46.66321" lon="5.51212">
        <ele>248.09</ele>
        <time>2021-12-15T14:08:27.999Z</time>
      </trkpt>
      <trkpt lat="46.66313" lon="5.51212">
        <ele>247.16</ele>
        <time>2021-12-15T14:08:37.999Z</time>
      </trkpt>
      <trkpt lat="46.66303" lon="5.51217">
        <ele>247.72</ele>
        <time>2021-12-15T14:08:47.999Z</time>
      </trkpt>
      <trkpt lat="46.66294" lon="5.51224">
        <ele>249.38</ele>
        <time>2021-12-15T14:08:57.999Z</time>
      </trkpt>
      <trkpt lat="46.66286" lon="5.51232">
        <ele>247.5</ele>
        <time>2021-12-15T14:09:07.999Z</time>
      </trkpt>
      <trkpt lat="46.66279" lon="5.51239">
        <ele>245.54</ele>
        <time>2021-12-15T14:09:17.999Z</time>
      </trkpt>
      <trkpt lat="46.66273" lon="5.51249">
        <ele>244.36</ele>
        <time>2021-12-15T14:09:27.999Z</time>
      </trkpt>
      <trkpt lat="46.66278" lon="5.51264">
        <ele>243.41</ele>
        <time>2021-12-15T14:09:37.999Z</time>
      </trkpt>
      <trkpt lat="46.66285" lon="5.51273">
        <ele>242.6</ele>
        <time>2021-12-15T14:09:47.999Z</time>
      </trkpt>
      <trkpt lat="46.66289" lon="5.51287">
        <ele>245.55</ele>
        <time>2021-12-15T14:09:57.999Z</time>
      </trkpt>
      <trkpt lat="46.66287" lon="5.51302">
        <ele>246.79</ele>
        <time>2021-12-15T14:10:07.999Z</time>
      </trkpt>
      <trkpt lat="46.66295" lon="5.51314">
        <ele>244.78</ele>
        <time>2021-12-15T14:10:17.999Z</time>
      </trkpt>
      <trkpt lat="46.66304" lon="5.51328">
        <ele>243.9</ele>
        <time>2021-12-15T14:10:27.999Z</time>
      </trkpt>
      <trkpt lat="46.66309" lon="5.5134">
        <ele>241.51</ele>
        <time>2021-12-15T14:10:37.999Z</time>
      </trkpt>
      <trkpt lat="46.66316" lon="5.51352">
        <ele>239.53</ele>
        <time>2021-12-15T14:10:47.999Z</time>
      </trkpt>
      <trkpt lat="46.66322" lon="5.51365">
        <ele>240.68</ele>
        <time>2021-12-15T14:10:57.999Z</time>
      </trkpt>
      <trkpt lat="46.66328" lon="5.51379">
        <ele>242.81</ele>
        <time>2021-12-15T14:11:07.999Z</time>
      </trkpt>
      <trkpt lat="46.66335" lon="5.51394">
        <ele>243.65</ele>
        <time>2021-12-15T14:11:17.999Z</time>
      </trkpt>
      <trkpt lat="46.66342" lon="5.51408">
        <ele>239.78</ele>
        <time>2021-12-15T14:11:27.999Z</time>
      </trkpt>
      <trkpt lat="46.66345" lon="5.51426">
        <ele>237.44</ele>
        <time>2021-12-15T14:11:37.999Z</time>
      </trkpt>
      <trkpt lat="46.66348" lon="5.5144">
        <ele>236.13</ele>
        <time>2021-12-15T14:11:47.999Z</time>
      </trkpt>
      <trkpt lat="46.6635" lon="5.51458">
        <ele>238.21</ele>
        <time>2021-12-15T14:11:57.999Z</time>
      </trkpt>
      <trkpt lat="46.66351" lon="5.51474">
        <ele>243.62</ele>
        <time>2021-12-15T14:12:07.999Z</time>
      </trkpt>
      <trkpt lat="46.66349" lon="5.51475">
        <ele>243.75</ele>
        <time>2021-12-15T14:12:21.999Z</time>
      </trkpt>
      <trkpt lat="46.66338" lon="5.51473">
        <ele>241.3</ele>
        <time>2021-12-15T14:12:31.999Z</time>
      </trkpt>
      <trkpt lat="46.66328" lon="5.51474">
        <ele>239.59</ele>
        <time>2021-12-15T14:12:41.999Z</time>
      </trkpt>
      <trkpt lat="46.66318" lon="5.51477">
        <ele>238.77</ele>
        <time>2021-12-15T14:12:51.999Z</time>
      </trkpt>
      <trkpt lat="46.66307" lon="5.51489">
        <ele>239.14</ele>
        <time>2021-12-15T14:13:01.999Z</time>
      </trkpt>
      <trkpt lat="46.66299" lon="5.51492">
        <ele>238.37</ele>
        <time>2021-12-15T14:13:11.999Z</time>
      </trkpt>
      <trkpt lat="46.66286" lon="5.51495">
        <ele>237.87</ele>
        <time>2021-12-15T14:13:21.999Z</time>
      </trkpt>
      <trkpt lat="46.66276" lon="5.51497">
        <ele>237.09</ele>
        <time>2021-12-15T14:13:31.999Z</time>
      </trkpt>
      <trkpt lat="46.66268" lon="5.51501">
        <ele>237.19</ele>
        <time>2021-12-15T14:13:41.999Z</time>
      </trkpt>
      <trkpt lat="46.66257" lon="5.51516">
        <ele>240.39</ele>
        <time>2021-12-15T14:13:51.999Z</time>
      </trkpt>
      <trkpt lat="46.66255" lon="5.51531">
        <ele>240.13</ele>
        <time>2021-12-15T14:14:01.999Z</time>
      </trkpt>
      <trkpt lat="46.66254" lon="5.51548">
        <ele>237.85</ele>
        <time>2021-12-15T14:14:11.999Z</time>
      </trkpt>
      <trkpt lat="46.66251" lon="5.51563">
        <ele>237.06</ele>
        <time>2021-12-15T14:14:21.999Z</time>
      </trkpt>
      <trkpt lat="46.66247" lon="5.51579">
        <ele>235.86</ele>
        <time>2021-12-15T14:14:31.999Z</time>
      </trkpt>
      <trkpt lat="46.66245" lon="5.51594">
        <ele>233.3</ele>
        <time>2021-12-15T14:14:41.999Z</time>
      </trkpt>
      <trkpt lat="46.66242" lon="5.51612">
        <ele>232.95</ele>
        <time>2021-12-15T14:14:51.999Z</time>
      </trkpt>
      <trkpt lat="46.66241" lon="5.51628">
        <ele>231.04</ele>
        <time>2021-12-15T14:15:01.999Z</time>
      </trkpt>
      <trkpt lat="46.66241" lon="5.51643">
        <ele>229.9</ele>
        <time>2021-12-15T14:15:11.999Z</time>
      </trkpt>
      <trkpt lat="46.66244" lon="5.51658">
        <ele>229.65</ele>
        <time>2021-12-15T14:15:21.999Z</time>
      </trkpt>
      <trkpt lat="46.66248" lon="5.51671">
        <ele>231.63</ele>
        <time>2021-12-15T14:15:31.999Z</time>
      </trkpt>
      <trkpt lat="46.66254" lon="5.51685">
        <ele>233</ele>
        <time>2021-12-15T14:15:41.999Z</time>
      </trkpt>
      <trkpt lat="46.66259" lon="5.517">
        <ele>232.96</ele>
        <time>2021-12-15T14:15:51.999Z</time>
      </trkpt>
      <trkpt lat="46.66266" lon="5.51713">
        <ele>234.11</ele>
        <time>2021-12-15T14:16:01.999Z</time>
      </trkpt>
      <trkpt lat="46.66272" lon="5.51724">
        <ele>236.8</ele>
        <time>2021-12-15T14:16:11.999Z</time>
      </trkpt>
      <trkpt lat="46.6628" lon="5.51736">
        <ele>238.07</ele>
        <time>2021-12-15T14:16:21.999Z</time>
      </trkpt>
      <trkpt lat="46.66277" lon="5.5175">
        <ele>242.27</ele>
        <time>2021-12-15T14:16:31.999Z</time>
      </trkpt>
      <trkpt lat="46.66273" lon="5.51763">
        <ele>240.22</ele>
        <time>2021-12-15T14:16:41.999Z</time>
      </trkpt>
      <trkpt lat="46.66262" lon="5.51777">
        <ele>239.84</ele>
        <time>2021-12-15T14:16:51.999Z</time>
      </trkpt>
      <trkpt lat="46.6626" lon="5.51791">
        <ele>236.89</ele>
        <time>2021-12-15T14:17:01.999Z</time>
      </trkpt>
      <trkpt lat="46.66256" lon="5.51808">
        <ele>230.05</ele>
        <time>2021-12-15T14:17:11.999Z</time>
      </trkpt>
      <trkpt lat="46.6625" lon="5.51818">
        <ele>224.17</ele>
        <time>2021-12-15T14:17:21.999Z</time>
      </trkpt>
      <trkpt lat="46.66243" lon="5.51831">
        <ele>220.28</ele>
        <time>2021-12-15T14:17:31.999Z</time>
      </trkpt>
      <trkpt lat="46.66236" lon="5.5185">
        <ele>220.15</ele>
        <time>2021-12-15T14:17:41.999Z</time>
      </trkpt>
      <trkpt lat="46.66231" lon="5.51862">
        <ele>223.82</ele>
        <time>2021-12-15T14:17:51.999Z</time>
      </trkpt>
      <trkpt lat="46.66223" lon="5.51872">
        <ele>224.8</ele>
        <time>2021-12-15T14:18:01.999Z</time>
      </trkpt>
      <trkpt lat="46.6622" lon="5.51887">
        <ele>226.17</ele>
        <time>2021-12-15T14:18:11.999Z</time>
      </trkpt>
      <trkpt lat="46.66219" lon="5.51901">
        <ele>228.78</ele>
        <time>2021-12-15T14:18:21.999Z</time>
      </trkpt>
      <trkpt lat="46.66219" lon="5.51919">
        <ele>234.12</ele>
        <time>2021-12-15T14:18:31.999Z</time>
      </trkpt>
      <trkpt lat="46.66221" lon="5.51934">
        <ele>235.94</ele>
        <time>2021-12-15T14:18:41.999Z</time>
      </trkpt>
      <trkpt lat="46.66223" lon="5.51953">
        <ele>235.02</ele>
        <time>2021-12-15T14:18:51.999Z</time>
      </trkpt>
      <trkpt lat="46.66221" lon="5.51972">
        <ele>231.36</ele>
        <time>2021-12-15T14:19:01.999Z</time>
      </trkpt>
      <trkpt lat="46.66222" lon="5.51986">
        <ele>231.6</ele>
        <time>2021-12-15T14:19:11.999Z</time>
      </trkpt>
      <trkpt lat="46.66218" lon="5.52">
        <ele>231.75</ele>
        <time>2021-12-15T14:19:21.999Z</time>
      </trkpt>
      <trkpt lat="46.66215" lon="5.52004">
        <ele>231.59</ele>
        <time>2021-12-15T14:19:31.999Z</time>
      </trkpt>
      <trkpt lat="46.66207" lon="5.52006">
        <ele>233.73</ele>
        <time>2021-12-15T14:19:41.999Z</time>
      </trkpt>
      <trkpt lat="46.66205" lon="5.52008">
        <ele>233.35</ele>
        <time>2021-12-15T14:19:51.999Z</time>
      </trkpt>
      <trkpt lat="46.66197" lon="5.52037">
        <ele>236.6</ele>
        <time>2021-12-15T14:20:01.999Z</time>
      </trkpt>
      <trkpt lat="46.66198" lon="5.52039">
        <ele>237.14</ele>
        <time>2021-12-15T14:20:11.999Z</time>
      </trkpt>
      <trkpt lat="46.66204" lon="5.52048">
        <ele>237.38</ele>
        <time>2021-12-15T14:20:21.999Z</time>
      </trkpt>
      <trkpt lat="46.66207" lon="5.52056">
        <ele>241.35</ele>
        <time>2021-12-15T14:20:31.999Z</time>
      </trkpt>
      <trkpt lat="46.66206" lon="5.52059">
        <ele>242.05</ele>
        <time>2021-12-15T14:21:19.999Z</time>
      </trkpt>
      <trkpt lat="46.66203" lon="5.52079">
        <ele>247.4</ele>
        <time>2021-12-15T14:21:29.999Z</time>
      </trkpt>
      <trkpt lat="46.66199" lon="5.52088">
        <ele>246.73</ele>
        <time>2021-12-15T14:21:39.999Z</time>
      </trkpt>
      <trkpt lat="46.66193" lon="5.52098">
        <ele>245.9</ele>
        <time>2021-12-15T14:21:49.999Z</time>
      </trkpt>
      <trkpt lat="46.66187" lon="5.52117">
        <ele>246.39</ele>
        <time>2021-12-15T14:21:59.999Z</time>
      </trkpt>
      <trkpt lat="46.66182" lon="5.52138">
        <ele>247.6</ele>
        <time>2021-12-15T14:22:09.999Z</time>
      </trkpt>
      <trkpt lat="46.66176" lon="5.52156">
        <ele>247.79</ele>
        <time>2021-12-15T14:22:19.999Z</time>
      </trkpt>
      <trkpt lat="46.66173" lon="5.52172">
        <ele>247.99</ele>
        <time>2021-12-15T14:22:29.999Z</time>
      </trkpt>
      <trkpt lat="46.66171" lon="5.52186">
        <ele>244.51</ele>
        <time>2021-12-15T14:22:39.999Z</time>
      </trkpt>
      <trkpt lat="46.66171" lon="5.522">
        <ele>242.68</ele>
        <time>2021-12-15T14:22:49.999Z</time>
      </trkpt>
      <trkpt lat="46.66172" lon="5.52216">
        <ele>240.88</ele>
        <time>2021-12-15T14:22:59.999Z</time>
      </trkpt>
      <trkpt lat="46.66171" lon="5.52232">
        <ele>236.89</ele>
        <time>2021-12-15T14:23:09.999Z</time>
      </trkpt>
      <trkpt lat="46.66168" lon="5.52246">
        <ele>237.22</ele>
        <time>2021-12-15T14:23:19.999Z</time>
      </trkpt>
      <trkpt lat="46.66164" lon="5.52261">
        <ele>239.62</ele>
        <time>2021-12-15T14:23:29.999Z</time>
      </trkpt>
      <trkpt lat="46.66157" lon="5.52275">
        <ele>241.18</ele>
        <time>2021-12-15T14:23:39.999Z</time>
      </trkpt>
      <trkpt lat="46.66149" lon="5.52285">
        <ele>240.38</ele>
        <time>2021-12-15T14:23:49.999Z</time>
      </trkpt>
      <trkpt lat="46.66142" lon="5.52301">
        <ele>241.2</ele>
        <time>2021-12-15T14:23:59.999Z</time>
      </trkpt>
      <trkpt lat="46.66133" lon="5.52313">
        <ele>243.22</ele>
        <time>2021-12-15T14:24:09.999Z</time>
      </trkpt>
      <trkpt lat="46.66131" lon="5.52313">
        <ele>241.94</ele>
        <time>2021-12-15T14:24:19.999Z</time>
      </trkpt>
      <trkpt lat="46.66117" lon="5.52308">
        <ele>240.32</ele>
        <time>2021-12-15T14:24:29.999Z</time>
      </trkpt>
      <trkpt lat="46.66112" lon="5.52306">
        <ele>240.53</ele>
        <time>2021-12-15T14:24:39.999Z</time>
      </trkpt>
      <trkpt lat="46.66102" lon="5.523">
        <ele>240.98</ele>
        <time>2021-12-15T14:24:49.999Z</time>
      </trkpt>
      <trkpt lat="46.66088" lon="5.52292">
        <ele>241.73</ele>
        <time>2021-12-15T14:24:59.999Z</time>
      </trkpt>
      <trkpt lat="46.66081" lon="5.52288">
        <ele>241.56</ele>
        <time>2021-12-15T14:25:09.999Z</time>
      </trkpt>
      <trkpt lat="46.66057" lon="5.5228">
        <ele>242.52</ele>
        <time>2021-12-15T14:25:19.999Z</time>
      </trkpt>
      <trkpt lat="46.66048" lon="5.52281">
        <ele>244.73</ele>
        <time>2021-12-15T14:25:29.999Z</time>
      </trkpt>
      <trkpt lat="46.66045" lon="5.52289">
        <ele>244.3</ele>
        <time>2021-12-15T14:25:39.999Z</time>
      </trkpt>
      <trkpt lat="46.6604" lon="5.52296">
        <ele>243.76</ele>
        <time>2021-12-15T14:25:49.999Z</time>
      </trkpt>
      <trkpt lat="46.66039" lon="5.52321">
        <ele>245.86</ele>
        <time>2021-12-15T14:25:59.999Z</time>
      </trkpt>
      <trkpt lat="46.66041" lon="5.52339">
        <ele>248.28</ele>
        <time>2021-12-15T14:26:09.999Z</time>
      </trkpt>
      <trkpt lat="46.66047" lon="5.52339">
        <ele>246.7</ele>
        <time>2021-12-15T14:26:19.999Z</time>
      </trkpt>
      <trkpt lat="46.66054" lon="5.5234">
        <ele>244.32</ele>
        <time>2021-12-15T14:26:29.999Z</time>
      </trkpt>
      <trkpt lat="46.66058" lon="5.52341">
        <ele>244.23</ele>
        <time>2021-12-15T14:26:48.999Z</time>
      </trkpt>
      <trkpt lat="46.66086" lon="5.52348">
        <ele>244.86</ele>
        <time>2021-12-15T14:26:58.999Z</time>
      </trkpt>
      <trkpt lat="46.66099" lon="5.52353">
        <ele>246.14</ele>
        <time>2021-12-15T14:27:08.999Z</time>
      </trkpt>
      <trkpt lat="46.6611" lon="5.52358">
        <ele>246.42</ele>
        <time>2021-12-15T14:27:18.999Z</time>
      </trkpt>
      <trkpt lat="46.66115" lon="5.52361">
        <ele>246.87</ele>
        <time>2021-12-15T14:27:28.999Z</time>
      </trkpt>
      <trkpt lat="46.66124" lon="5.52363">
        <ele>247.79</ele>
        <time>2021-12-15T14:27:38.999Z</time>
      </trkpt>
      <trkpt lat="46.66136" lon="5.52369">
        <ele>249.92</ele>
        <time>2021-12-15T14:27:48.999Z</time>
      </trkpt>
      <trkpt lat="46.6614" lon="5.52384">
        <ele>248.62</ele>
        <time>2021-12-15T14:27:58.999Z</time>
      </trkpt>
      <trkpt lat="46.66139" lon="5.52396">
        <ele>246.66</ele>
        <time>2021-12-15T14:28:08.999Z</time>
      </trkpt>
      <trkpt lat="46.66138" lon="5.52409">
        <ele>246.16</ele>
        <time>2021-12-15T14:28:18.999Z</time>
      </trkpt>
      <trkpt lat="46.66138" lon="5.52424">
        <ele>249.93</ele>
        <time>2021-12-15T14:28:28.999Z</time>
      </trkpt>
      <trkpt lat="46.66135" lon="5.52442">
        <ele>249.93</ele>
        <time>2021-12-15T14:28:38.999Z</time>
      </trkpt>
      <trkpt lat="46.66132" lon="5.52458">
        <ele>251.85</ele>
        <time>2021-12-15T14:28:48.999Z</time>
      </trkpt>
      <trkpt lat="46.66131" lon="5.52472">
        <ele>254.07</ele>
        <time>2021-12-15T14:28:58.999Z</time>
      </trkpt>
      <trkpt lat="46.66129" lon="5.52487">
        <ele>256.37</ele>
        <time>2021-12-15T14:29:08.999Z</time>
      </trkpt>
      <trkpt lat="46.66128" lon="5.525">
        <ele>257.15</ele>
        <time>2021-12-15T14:29:18.999Z</time>
      </trkpt>
      <trkpt lat="46.66127" lon="5.52515">
        <ele>254.97</ele>
        <time>2021-12-15T14:29:28.999Z</time>
      </trkpt>
      <trkpt lat="46.66122" lon="5.5253">
        <ele>253.56</ele>
        <time>2021-12-15T14:29:38.999Z</time>
      </trkpt>
      <trkpt lat="46.66119" lon="5.52545">
        <ele>254.63</ele>
        <time>2021-12-15T14:29:48.999Z</time>
      </trkpt>
      <trkpt lat="46.66114" lon="5.52561">
        <ele>256.26</ele>
        <time>2021-12-15T14:29:58.999Z</time>
      </trkpt>
      <trkpt lat="46.66111" lon="5.52576">
        <ele>257.31</ele>
        <time>2021-12-15T14:30:08.999Z</time>
      </trkpt>
      <trkpt lat="46.66109" lon="5.52592">
        <ele>257.84</ele>
        <time>2021-12-15T14:30:18.999Z</time>
      </trkpt>
      <trkpt lat="46.66107" lon="5.52606">
        <ele>255.7</ele>
        <time>2021-12-15T14:30:28.999Z</time>
      </trkpt>
      <trkpt lat="46.66104" lon="5.52621">
        <ele>255.81</ele>
        <time>2021-12-15T14:30:38.999Z</time>
      </trkpt>
      <trkpt lat="46.66103" lon="5.52634">
        <ele>257.53</ele>
        <time>2021-12-15T14:30:48.999Z</time>
      </trkpt>
      <trkpt lat="46.66103" lon="5.52649">
        <ele>262.41</ele>
        <time>2021-12-15T14:30:58.999Z</time>
      </trkpt>
      <trkpt lat="46.66103" lon="5.52651">
        <ele>262.98</ele>
        <time>2021-12-15T14:31:08.999Z</time>
      </trkpt>
      <trkpt lat="46.66103" lon="5.52652">
        <ele>262.94</ele>
        <time>2021-12-15T14:32:00.999Z</time>
      </trkpt>
      <trkpt lat="46.66102" lon="5.52651">
        <ele>263.49</ele>
        <time>2021-12-15T14:32:10.999Z</time>
      </trkpt>
      <trkpt lat="46.66101" lon="5.52653">
        <ele>265.01</ele>
        <time>2021-12-15T14:32:20.999Z</time>
      </trkpt>
      <trkpt lat="46.661" lon="5.52655">
        <ele>265.81</ele>
        <time>2021-12-15T14:33:39.999Z</time>
      </trkpt>
      <trkpt lat="46.66108" lon="5.52656">
        <ele>263.25</ele>
        <time>2021-12-15T14:33:49.999Z</time>
      </trkpt>
      <trkpt lat="46.66119" lon="5.52652">
        <ele>262.15</ele>
        <time>2021-12-15T14:33:59.999Z</time>
      </trkpt>
      <trkpt lat="46.66128" lon="5.5265">
        <ele>260.73</ele>
        <time>2021-12-15T14:34:09.999Z</time>
      </trkpt>
      <trkpt lat="46.66137" lon="5.52647">
        <ele>258.25</ele>
        <time>2021-12-15T14:34:19.999Z</time>
      </trkpt>
      <trkpt lat="46.66149" lon="5.52646">
        <ele>260.35</ele>
        <time>2021-12-15T14:34:29.999Z</time>
      </trkpt>
      <trkpt lat="46.66161" lon="5.5264">
        <ele>259.1</ele>
        <time>2021-12-15T14:34:39.999Z</time>
      </trkpt>
      <trkpt lat="46.66172" lon="5.52636">
        <ele>257.25</ele>
        <time>2021-12-15T14:34:49.999Z</time>
      </trkpt>
      <trkpt lat="46.6618" lon="5.52631">
        <ele>255.99</ele>
        <time>2021-12-15T14:34:59.999Z</time>
      </trkpt>
      <trkpt lat="46.6619" lon="5.52629">
        <ele>256.58</ele>
        <time>2021-12-15T14:35:09.999Z</time>
      </trkpt>
      <trkpt lat="46.66202" lon="5.52627">
        <ele>258.24</ele>
        <time>2021-12-15T14:35:19.999Z</time>
      </trkpt>
      <trkpt lat="46.66214" lon="5.52626">
        <ele>259.8</ele>
        <time>2021-12-15T14:35:29.999Z</time>
      </trkpt>
      <trkpt lat="46.66227" lon="5.52622">
        <ele>259.53</ele>
        <time>2021-12-15T14:35:39.999Z</time>
      </trkpt>
      <trkpt lat="46.66241" lon="5.52623">
        <ele>261.18</ele>
        <time>2021-12-15T14:35:49.999Z</time>
      </trkpt>
      <trkpt lat="46.66252" lon="5.5262">
        <ele>260.41</ele>
        <time>2021-12-15T14:35:59.999Z</time>
      </trkpt>
      <trkpt lat="46.66262" lon="5.52618">
        <ele>261.3</ele>
        <time>2021-12-15T14:36:09.999Z</time>
      </trkpt>
      <trkpt lat="46.66273" lon="5.52615">
        <ele>265.35</ele>
        <time>2021-12-15T14:36:19.999Z</time>
      </trkpt>
      <trkpt lat="46.66286" lon="5.52619">
        <ele>267.1</ele>
        <time>2021-12-15T14:36:29.999Z</time>
      </trkpt>
      <trkpt lat="46.66298" lon="5.52619">
        <ele>267.73</ele>
        <time>2021-12-15T14:36:39.999Z</time>
      </trkpt>
      <trkpt lat="46.6631" lon="5.52618">
        <ele>265.26</ele>
        <time>2021-12-15T14:36:49.999Z</time>
      </trkpt>
      <trkpt lat="46.66321" lon="5.52618">
        <ele>263.77</ele>
        <time>2021-12-15T14:36:59.999Z</time>
      </trkpt>
      <trkpt lat="46.66333" lon="5.52622">
        <ele>264.16</ele>
        <time>2021-12-15T14:37:09.999Z</time>
      </trkpt>
      <trkpt lat="46.66344" lon="5.52624">
        <ele>264.68</ele>
        <time>2021-12-15T14:37:19.999Z</time>
      </trkpt>
      <trkpt lat="46.66356" lon="5.52627">
        <ele>263.63</ele>
        <time>2021-12-15T14:37:29.999Z</time>
      </trkpt>
      <trkpt lat="46.66368" lon="5.52631">
        <ele>264.02</ele>
        <time>2021-12-15T14:37:39.999Z</time>
      </trkpt>
      <trkpt lat="46.66379" lon="5.52632">
        <ele>264.82</ele>
        <time>2021-12-15T14:37:49.999Z</time>
      </trkpt>
      <trkpt lat="46.6639" lon="5.52637">
        <ele>264.96</ele>
        <time>2021-12-15T14:37:59.999Z</time>
      </trkpt>
      <trkpt lat="46.66402" lon="5.52642">
        <ele>265.78</ele>
        <time>2021-12-15T14:38:09.999Z</time>
      </trkpt>
      <trkpt lat="46.66414" lon="5.52649">
        <ele>268.43</ele>
        <time>2021-12-15T14:38:19.999Z</time>
      </trkpt>
      <trkpt lat="46.66426" lon="5.52651">
        <ele>269.22</ele>
        <time>2021-12-15T14:38:29.999Z</time>
      </trkpt>
      <trkpt lat="46.66436" lon="5.52654">
        <ele>266.82</ele>
        <time>2021-12-15T14:38:39.999Z</time>
      </trkpt>
      <trkpt lat="46.66447" lon="5.52658">
        <ele>264.35</ele>
        <time>2021-12-15T14:38:49.999Z</time>
      </trkpt>
      <trkpt lat="46.6646" lon="5.52663">
        <ele>262.95</ele>
        <time>2021-12-15T14:38:59.999Z</time>
      </trkpt>
      <trkpt lat="46.66472" lon="5.52667">
        <ele>263</ele>
        <time>2021-12-15T14:39:09.999Z</time>
      </trkpt>
      <trkpt lat="46.66483" lon="5.52673">
        <ele>264.53</ele>
        <time>2021-12-15T14:39:19.999Z</time>
      </trkpt>
      <trkpt lat="46.66493" lon="5.52677">
        <ele>264.02</ele>
        <time>2021-12-15T14:39:29.999Z</time>
      </trkpt>
      <trkpt lat="46.66506" lon="5.52681">
        <ele>263.48</ele>
        <time>2021-12-15T14:39:39.999Z</time>
      </trkpt>
      <trkpt lat="46.66518" lon="5.52688">
        <ele>264</ele>
        <time>2021-12-15T14:39:49.999Z</time>
      </trkpt>
      <trkpt lat="46.66529" lon="5.52691">
        <ele>263.7</ele>
        <time>2021-12-15T14:39:59.999Z</time>
      </trkpt>
      <trkpt lat="46.66542" lon="5.52696">
        <ele>264.24</ele>
        <time>2021-12-15T14:40:09.999Z</time>
      </trkpt>
      <trkpt lat="46.66553" lon="5.52701">
        <ele>263.18</ele>
        <time>2021-12-15T14:40:19.999Z</time>
      </trkpt>
      <trkpt lat="46.66564" lon="5.52706">
        <ele>263.36</ele>
        <time>2021-12-15T14:40:29.999Z</time>
      </trkpt>
      <trkpt lat="46.66575" lon="5.52709">
        <ele>263.51</ele>
        <time>2021-12-15T14:40:39.999Z</time>
      </trkpt>
      <trkpt lat="46.66584" lon="5.52708">
        <ele>264.26</ele>
        <time>2021-12-15T14:40:49.999Z</time>
      </trkpt>
      <trkpt lat="46.66595" lon="5.52707">
        <ele>264</ele>
        <time>2021-12-15T14:40:59.999Z</time>
      </trkpt>
      <trkpt lat="46.66608" lon="5.52706">
        <ele>262.79</ele>
        <time>2021-12-15T14:41:09.999Z</time>
      </trkpt>
      <trkpt lat="46.6662" lon="5.52707">
        <ele>261.85</ele>
        <time>2021-12-15T14:41:19.999Z</time>
      </trkpt>
      <trkpt lat="46.66634" lon="5.52707">
        <ele>264.59</ele>
        <time>2021-12-15T14:41:29.999Z</time>
      </trkpt>
      <trkpt lat="46.66647" lon="5.52705">
        <ele>265.12</ele>
        <time>2021-12-15T14:41:39.999Z</time>
      </trkpt>
      <trkpt lat="46.66657" lon="5.52704">
        <ele>264.68</ele>
        <time>2021-12-15T14:41:49.999Z</time>
      </trkpt>
      <trkpt lat="46.6667" lon="5.52706">
        <ele>264.46</ele>
        <time>2021-12-15T14:41:59.999Z</time>
      </trkpt>
      <trkpt lat="46.66682" lon="5.5271">
        <ele>265.2</ele>
        <time>2021-12-15T14:42:09.999Z</time>
      </trkpt>
      <trkpt lat="46.66693" lon="5.52711">
        <ele>265.71</ele>
        <time>2021-12-15T14:42:19.999Z</time>
      </trkpt>
      <trkpt lat="46.66704" lon="5.52714">
        <ele>264.16</ele>
        <time>2021-12-15T14:42:29.999Z</time>
      </trkpt>
      <trkpt lat="46.66715" lon="5.52717">
        <ele>262.61</ele>
        <time>2021-12-15T14:42:39.999Z</time>
      </trkpt>
      <trkpt lat="46.66725" lon="5.52724">
        <ele>260.36</ele>
        <time>2021-12-15T14:42:49.999Z</time>
      </trkpt>
      <trkpt lat="46.66736" lon="5.52729">
        <ele>258.45</ele>
        <time>2021-12-15T14:42:59.999Z</time>
      </trkpt>
      <trkpt lat="46.66746" lon="5.5273">
        <ele>259.67</ele>
        <time>2021-12-15T14:43:09.999Z</time>
      </trkpt>
      <trkpt lat="46.66756" lon="5.5273">
        <ele>260.61</ele>
        <time>2021-12-15T14:43:19.999Z</time>
      </trkpt>
      <trkpt lat="46.66766" lon="5.52737">
        <ele>261.34</ele>
        <time>2021-12-15T14:43:29.999Z</time>
      </trkpt>
      <trkpt lat="46.66776" lon="5.52742">
        <ele>260.7</ele>
        <time>2021-12-15T14:43:39.999Z</time>
      </trkpt>
      <trkpt lat="46.66786" lon="5.52747">
        <ele>258.78</ele>
        <time>2021-12-15T14:43:49.999Z</time>
      </trkpt>
      <trkpt lat="46.66794" lon="5.52753">
        <ele>260.06</ele>
        <time>2021-12-15T14:43:59.999Z</time>
      </trkpt>
      <trkpt lat="46.66806" lon="5.52758">
        <ele>261.05</ele>
        <time>2021-12-15T14:44:09.999Z</time>
      </trkpt>
      <trkpt lat="46.66816" lon="5.52762">
        <ele>262.67</ele>
        <time>2021-12-15T14:44:19.999Z</time>
      </trkpt>
      <trkpt lat="46.66826" lon="5.52768">
        <ele>262.54</ele>
        <time>2021-12-15T14:44:29.999Z</time>
      </trkpt>
      <trkpt lat="46.66838" lon="5.52776">
        <ele>262.69</ele>
        <time>2021-12-15T14:44:39.999Z</time>
      </trkpt>
      <trkpt lat="46.66851" lon="5.52782">
        <ele>262.91</ele>
        <time>2021-12-15T14:44:49.999Z</time>
      </trkpt>
      <trkpt lat="46.66862" lon="5.52789">
        <ele>262.32</ele>
        <time>2021-12-15T14:44:59.999Z</time>
      </trkpt>
      <trkpt lat="46.66874" lon="5.52796">
        <ele>259.15</ele>
        <time>2021-12-15T14:45:09.999Z</time>
      </trkpt>
      <trkpt lat="46.66884" lon="5.52803">
        <ele>257.43</ele>
        <time>2021-12-15T14:45:19.999Z</time>
      </trkpt>
      <trkpt lat="46.66891" lon="5.52809">
        <ele>257.44</ele>
        <time>2021-12-15T14:45:29.999Z</time>
      </trkpt>
      <trkpt lat="46.66902" lon="5.52812">
        <ele>257.49</ele>
        <time>2021-12-15T14:45:39.999Z</time>
      </trkpt>
      <trkpt lat="46.66912" lon="5.52817">
        <ele>255.95</ele>
        <time>2021-12-15T14:45:49.999Z</time>
      </trkpt>
      <trkpt lat="46.66925" lon="5.52823">
        <ele>256.45</ele>
        <time>2021-12-15T14:45:59.999Z</time>
      </trkpt>
      <trkpt lat="46.66938" lon="5.52824">
        <ele>258.07</ele>
        <time>2021-12-15T14:46:09.999Z</time>
      </trkpt>
      <trkpt lat="46.66953" lon="5.52826">
        <ele>259.09</ele>
        <time>2021-12-15T14:46:19.999Z</time>
      </trkpt>
      <trkpt lat="46.66965" lon="5.52824">
        <ele>260.47</ele>
        <time>2021-12-15T14:46:29.999Z</time>
      </trkpt>
      <trkpt lat="46.66976" lon="5.52824">
        <ele>260.9</ele>
        <time>2021-12-15T14:46:39.999Z</time>
      </trkpt>
      <trkpt lat="46.66985" lon="5.52819">
        <ele>258.38</ele>
        <time>2021-12-15T14:46:49.999Z</time>
      </trkpt>
      <trkpt lat="46.66994" lon="5.52819">
        <ele>257.54</ele>
        <time>2021-12-15T14:46:59.999Z</time>
      </trkpt>
      <trkpt lat="46.67" lon="5.52818">
        <ele>256.98</ele>
        <time>2021-12-15T14:47:09.999Z</time>
      </trkpt>
      <trkpt lat="46.67012" lon="5.52817">
        <ele>256.94</ele>
        <time>2021-12-15T14:47:19.999Z</time>
      </trkpt>
      <trkpt lat="46.67024" lon="5.52815">
        <ele>257.3</ele>
        <time>2021-12-15T14:47:29.999Z</time>
      </trkpt>
      <trkpt lat="46.67035" lon="5.52817">
        <ele>256.06</ele>
        <time>2021-12-15T14:47:39.999Z</time>
      </trkpt>
      <trkpt lat="46.67042" lon="5.52819">
        <ele>254.54</ele>
        <time>2021-12-15T14:47:49.999Z</time>
      </trkpt>
      <trkpt lat="46.67053" lon="5.52819">
        <ele>253.59</ele>
        <time>2021-12-15T14:47:59.999Z</time>
      </trkpt>
      <trkpt lat="46.67067" lon="5.52825">
        <ele>254.12</ele>
        <time>2021-12-15T14:48:09.999Z</time>
      </trkpt>
      <trkpt lat="46.67078" lon="5.52833">
        <ele>255.65</ele>
        <time>2021-12-15T14:48:19.999Z</time>
      </trkpt>
      <trkpt lat="46.67084" lon="5.5284">
        <ele>255.84</ele>
        <time>2021-12-15T14:48:29.999Z</time>
      </trkpt>
      <trkpt lat="46.67094" lon="5.5285">
        <ele>253.43</ele>
        <time>2021-12-15T14:48:39.999Z</time>
      </trkpt>
      <trkpt lat="46.67104" lon="5.52858">
        <ele>253.52</ele>
        <time>2021-12-15T14:48:49.999Z</time>
      </trkpt>
      <trkpt lat="46.67112" lon="5.52871">
        <ele>252.35</ele>
        <time>2021-12-15T14:48:59.999Z</time>
      </trkpt>
      <trkpt lat="46.6712" lon="5.52883">
        <ele>251.2</ele>
        <time>2021-12-15T14:49:09.999Z</time>
      </trkpt>
      <trkpt lat="46.6713" lon="5.52897">
        <ele>252.83</ele>
        <time>2021-12-15T14:49:19.999Z</time>
      </trkpt>
      <trkpt lat="46.67138" lon="5.52909">
        <ele>254.37</ele>
        <time>2021-12-15T14:49:29.999Z</time>
      </trkpt>
      <trkpt lat="46.67146" lon="5.52923">
        <ele>256.8</ele>
        <time>2021-12-15T14:49:39.999Z</time>
      </trkpt>
      <trkpt lat="46.67155" lon="5.52935">
        <ele>258.23</ele>
        <time>2021-12-15T14:49:49.999Z</time>
      </trkpt>
      <trkpt lat="46.67163" lon="5.5295">
        <ele>257.05</ele>
        <time>2021-12-15T14:49:59.999Z</time>
      </trkpt>
      <trkpt lat="46.67171" lon="5.52963">
        <ele>257.42</ele>
        <time>2021-12-15T14:50:09.999Z</time>
      </trkpt>
      <trkpt lat="46.67177" lon="5.52972">
        <ele>258.1</ele>
        <time>2021-12-15T14:50:19.999Z</time>
      </trkpt>
      <trkpt lat="46.67183" lon="5.52986">
        <ele>258.26</ele>
        <time>2021-12-15T14:50:29.999Z</time>
      </trkpt>
      <trkpt lat="46.67188" lon="5.52997">
        <ele>256.95</ele>
        <time>2021-12-15T14:50:39.999Z</time>
      </trkpt>
      <trkpt lat="46.67194" lon="5.53012">
        <ele>255.82</ele>
        <time>2021-12-15T14:50:49.999Z</time>
      </trkpt>
      <trkpt lat="46.672" lon="5.53026">
        <ele>256.04</ele>
        <time>2021-12-15T14:50:59.999Z</time>
      </trkpt>
      <trkpt lat="46.67202" lon="5.53039">
        <ele>254.61</ele>
        <time>2021-12-15T14:51:09.999Z</time>
      </trkpt>
      <trkpt lat="46.67206" lon="5.53053">
        <ele>256</ele>
        <time>2021-12-15T14:51:19.999Z</time>
      </trkpt>
      <trkpt lat="46.67209" lon="5.53066">
        <ele>256.93</ele>
        <time>2021-12-15T14:51:29.999Z</time>
      </trkpt>
      <trkpt lat="46.67213" lon="5.53081">
        <ele>258.07</ele>
        <time>2021-12-15T14:51:39.999Z</time>
      </trkpt>
      <trkpt lat="46.67217" lon="5.53096">
        <ele>260.85</ele>
        <time>2021-12-15T14:51:49.999Z</time>
      </trkpt>
      <trkpt lat="46.67221" lon="5.53109">
        <ele>262.32</ele>
        <time>2021-12-15T14:51:59.999Z</time>
      </trkpt>
      <trkpt lat="46.67226" lon="5.53123">
        <ele>261.71</ele>
        <time>2021-12-15T14:52:09.999Z</time>
      </trkpt>
      <trkpt lat="46.67226" lon="5.53134">
        <ele>261.19</ele>
        <time>2021-12-15T14:52:19.999Z</time>
      </trkpt>
      <trkpt lat="46.67228" lon="5.53147">
        <ele>260.27</ele>
        <time>2021-12-15T14:52:29.999Z</time>
      </trkpt>
      <trkpt lat="46.67227" lon="5.53153">
        <ele>260.68</ele>
        <time>2021-12-15T14:53:15.999Z</time>
      </trkpt>
      <trkpt lat="46.67228" lon="5.53162">
        <ele>261.41</ele>
        <time>2021-12-15T14:53:25.999Z</time>
      </trkpt>
      <trkpt lat="46.67227" lon="5.53164">
        <ele>261.14</ele>
        <time>2021-12-15T14:56:48.999Z</time>
      </trkpt>
      <trkpt lat="46.67224" lon="5.532">
        <ele>264.3</ele>
        <time>2021-12-15T14:56:58.999Z</time>
      </trkpt>
      <trkpt lat="46.67219" lon="5.53219">
        <ele>264.84</ele>
        <time>2021-12-15T14:57:08.999Z</time>
      </trkpt>
      <trkpt lat="46.67209" lon="5.53233">
        <ele>265.93</ele>
        <time>2021-12-15T14:57:18.999Z</time>
      </trkpt>
      <trkpt lat="46.67205" lon="5.53244">
        <ele>265.77</ele>
        <time>2021-12-15T14:57:28.999Z</time>
      </trkpt>
      <trkpt lat="46.67202" lon="5.53255">
        <ele>264.88</ele>
        <time>2021-12-15T14:57:38.999Z</time>
      </trkpt>
      <trkpt lat="46.67201" lon="5.53269">
        <ele>266.09</ele>
        <time>2021-12-15T14:57:48.999Z</time>
      </trkpt>
      <trkpt lat="46.67201" lon="5.53284">
        <ele>265.74</ele>
        <time>2021-12-15T14:57:58.999Z</time>
      </trkpt>
      <trkpt lat="46.67208" lon="5.53297">
        <ele>264.53</ele>
        <time>2021-12-15T14:58:08.999Z</time>
      </trkpt>
      <trkpt lat="46.67212" lon="5.5331">
        <ele>262.87</ele>
        <time>2021-12-15T14:58:18.999Z</time>
      </trkpt>
      <trkpt lat="46.67212" lon="5.53326">
        <ele>261.71</ele>
        <time>2021-12-15T14:58:28.999Z</time>
      </trkpt>
      <trkpt lat="46.67214" lon="5.53343">
        <ele>262.37</ele>
        <time>2021-12-15T14:58:38.999Z</time>
      </trkpt>
      <trkpt lat="46.67215" lon="5.53359">
        <ele>263.13</ele>
        <time>2021-12-15T14:58:48.999Z</time>
      </trkpt>
      <trkpt lat="46.67213" lon="5.53374">
        <ele>265.71</ele>
        <time>2021-12-15T14:58:58.999Z</time>
      </trkpt>
      <trkpt lat="46.67214" lon="5.53392">
        <ele>269.46</ele>
        <time>2021-12-15T14:59:08.999Z</time>
      </trkpt>
      <trkpt lat="46.67216" lon="5.53408">
        <ele>268.01</ele>
        <time>2021-12-15T14:59:18.999Z</time>
      </trkpt>
      <trkpt lat="46.67218" lon="5.53424">
        <ele>268.47</ele>
        <time>2021-12-15T14:59:28.999Z</time>
      </trkpt>
      <trkpt lat="46.67216" lon="5.5344">
        <ele>271.55</ele>
        <time>2021-12-15T14:59:38.999Z</time>
      </trkpt>
      <trkpt lat="46.67215" lon="5.53457">
        <ele>273.07</ele>
        <time>2021-12-15T14:59:48.999Z</time>
      </trkpt>
      <trkpt lat="46.67214" lon="5.53472">
        <ele>273.28</ele>
        <time>2021-12-15T14:59:58.999Z</time>
      </trkpt>
      <trkpt lat="46.6721" lon="5.53489">
        <ele>274.73</ele>
        <time>2021-12-15T15:00:08.999Z</time>
      </trkpt>
      <trkpt lat="46.67208" lon="5.53501">
        <ele>274.24</ele>
        <time>2021-12-15T15:00:18.999Z</time>
      </trkpt>
      <trkpt lat="46.67203" lon="5.5352">
        <ele>276.99</ele>
        <time>2021-12-15T15:00:28.999Z</time>
      </trkpt>
      <trkpt lat="46.67198" lon="5.53541">
        <ele>276.06</ele>
        <time>2021-12-15T15:00:38.999Z</time>
      </trkpt>
      <trkpt lat="46.67195" lon="5.53555">
        <ele>274.2</ele>
        <time>2021-12-15T15:00:48.999Z</time>
      </trkpt>
      <trkpt lat="46.67188" lon="5.53566">
        <ele>271.32</ele>
        <time>2021-12-15T15:00:58.999Z</time>
      </trkpt>
      <trkpt lat="46.67183" lon="5.53575">
        <ele>269.33</ele>
        <time>2021-12-15T15:01:08.999Z</time>
      </trkpt>
      <trkpt lat="46.67178" lon="5.53591">
        <ele>265.92</ele>
        <time>2021-12-15T15:01:18.999Z</time>
      </trkpt>
      <trkpt lat="46.67171" lon="5.536">
        <ele>267.15</ele>
        <time>2021-12-15T15:01:28.999Z</time>
      </trkpt>
      <trkpt lat="46.67162" lon="5.53617">
        <ele>268.35</ele>
        <time>2021-12-15T15:01:38.999Z</time>
      </trkpt>
      <trkpt lat="46.67154" lon="5.53635">
        <ele>267.7</ele>
        <time>2021-12-15T15:01:48.999Z</time>
      </trkpt>
      <trkpt lat="46.67148" lon="5.53643">
        <ele>265.15</ele>
        <time>2021-12-15T15:01:58.999Z</time>
      </trkpt>
      <trkpt lat="46.67145" lon="5.53648">
        <ele>265.7</ele>
        <time>2021-12-15T15:02:08.999Z</time>
      </trkpt>
      <trkpt lat="46.67144" lon="5.5365">
        <ele>266.2</ele>
        <time>2021-12-15T15:02:23.999Z</time>
      </trkpt>
      <trkpt lat="46.67142" lon="5.53652">
        <ele>267.27</ele>
        <time>2021-12-15T15:02:33.999Z</time>
      </trkpt>
      <trkpt lat="46.67141" lon="5.53654">
        <ele>267.3</ele>
        <time>2021-12-15T15:02:51.999Z</time>
      </trkpt>
      <trkpt lat="46.67137" lon="5.53671">
        <ele>265.64</ele>
        <time>2021-12-15T15:03:01.999Z</time>
      </trkpt>
      <trkpt lat="46.67137" lon="5.53678">
        <ele>265.3</ele>
        <time>2021-12-15T15:03:11.999Z</time>
      </trkpt>
      <trkpt lat="46.6714" lon="5.5369">
        <ele>267.7</ele>
        <time>2021-12-15T15:03:21.999Z</time>
      </trkpt>
      <trkpt lat="46.67141" lon="5.53695">
        <ele>268.04</ele>
        <time>2021-12-15T15:03:31.999Z</time>
      </trkpt>
      <trkpt lat="46.6714" lon="5.5372">
        <ele>268.28</ele>
        <time>2021-12-15T15:03:41.999Z</time>
      </trkpt>
      <trkpt lat="46.67141" lon="5.53745">
        <ele>269.82</ele>
        <time>2021-12-15T15:03:51.999Z</time>
      </trkpt>
      <trkpt lat="46.67143" lon="5.53761">
        <ele>269.36</ele>
        <time>2021-12-15T15:04:01.999Z</time>
      </trkpt>
      <trkpt lat="46.67147" lon="5.53776">
        <ele>267.92</ele>
        <time>2021-12-15T15:04:11.999Z</time>
      </trkpt>
      <trkpt lat="46.67149" lon="5.53791">
        <ele>268.14</ele>
        <time>2021-12-15T15:04:21.999Z</time>
      </trkpt>
      <trkpt lat="46.67151" lon="5.5381">
        <ele>269.79</ele>
        <time>2021-12-15T15:04:31.999Z</time>
      </trkpt>
      <trkpt lat="46.67154" lon="5.53827">
        <ele>269.28</ele>
        <time>2021-12-15T15:04:41.999Z</time>
      </trkpt>
      <trkpt lat="46.67156" lon="5.53844">
        <ele>269.93</ele>
        <time>2021-12-15T15:04:51.999Z</time>
      </trkpt>
      <trkpt lat="46.67159" lon="5.53861">
        <ele>272.01</ele>
        <time>2021-12-15T15:05:01.999Z</time>
      </trkpt>
      <trkpt lat="46.67162" lon="5.53876">
        <ele>271.37</ele>
        <time>2021-12-15T15:05:11.999Z</time>
      </trkpt>
      <trkpt lat="46.67166" lon="5.5389">
        <ele>268.01</ele>
        <time>2021-12-15T15:05:21.999Z</time>
      </trkpt>
      <trkpt lat="46.6717" lon="5.53907">
        <ele>267.65</ele>
        <time>2021-12-15T15:05:31.999Z</time>
      </trkpt>
      <trkpt lat="46.67174" lon="5.53915">
        <ele>266.62</ele>
        <time>2021-12-15T15:05:41.999Z</time>
      </trkpt>
      <trkpt lat="46.67172" lon="5.53944">
        <ele>265.3</ele>
        <time>2021-12-15T15:05:51.999Z</time>
      </trkpt>
      <trkpt lat="46.67177" lon="5.53957">
        <ele>266.66</ele>
        <time>2021-12-15T15:06:01.999Z</time>
      </trkpt>
      <trkpt lat="46.6718" lon="5.53969">
        <ele>267.08</ele>
        <time>2021-12-15T15:06:11.999Z</time>
      </trkpt>
      <trkpt lat="46.67181" lon="5.5398">
        <ele>266.38</ele>
        <time>2021-12-15T15:06:21.999Z</time>
      </trkpt>
      <trkpt lat="46.6718" lon="5.53995">
        <ele>268.73</ele>
        <time>2021-12-15T15:06:31.999Z</time>
      </trkpt>
      <trkpt lat="46.67183" lon="5.54003">
        <ele>269.05</ele>
        <time>2021-12-15T15:06:41.999Z</time>
      </trkpt>
      <trkpt lat="46.67187" lon="5.5402">
        <ele>268.26</ele>
        <time>2021-12-15T15:06:51.999Z</time>
      </trkpt>
      <trkpt lat="46.67186" lon="5.54034">
        <ele>265.36</ele>
        <time>2021-12-15T15:07:01.999Z</time>
      </trkpt>
      <trkpt lat="46.67183" lon="5.54052">
        <ele>264.92</ele>
        <time>2021-12-15T15:07:11.999Z</time>
      </trkpt>
      <trkpt lat="46.67185" lon="5.54064">
        <ele>263.81</ele>
        <time>2021-12-15T15:07:21.999Z</time>
      </trkpt>
      <trkpt lat="46.67192" lon="5.5408">
        <ele>263.45</ele>
        <time>2021-12-15T15:07:31.999Z</time>
      </trkpt>
      <trkpt lat="46.67193" lon="5.54086">
        <ele>262.82</ele>
        <time>2021-12-15T15:07:41.999Z</time>
      </trkpt>
      <trkpt lat="46.672" lon="5.54108">
        <ele>258.65</ele>
        <time>2021-12-15T15:07:51.999Z</time>
      </trkpt>
      <trkpt lat="46.67203" lon="5.54139">
        <ele>257.44</ele>
        <time>2021-12-15T15:08:01.999Z</time>
      </trkpt>
      <trkpt lat="46.67209" lon="5.54154">
        <ele>252.77</ele>
        <time>2021-12-15T15:08:11.999Z</time>
      </trkpt>
      <trkpt lat="46.67216" lon="5.54166">
        <ele>252.26</ele>
        <time>2021-12-15T15:08:21.999Z</time>
      </trkpt>
      <trkpt lat="46.6722" lon="5.54176">
        <ele>249.82</ele>
        <time>2021-12-15T15:08:31.999Z</time>
      </trkpt>
      <trkpt lat="46.67224" lon="5.5419">
        <ele>248.6</ele>
        <time>2021-12-15T15:08:41.999Z</time>
      </trkpt>
      <trkpt lat="46.67228" lon="5.54206">
        <ele>249.03</ele>
        <time>2021-12-15T15:08:51.999Z</time>
      </trkpt>
      <trkpt lat="46.67232" lon="5.54225">
        <ele>251.05</ele>
        <time>2021-12-15T15:09:01.999Z</time>
      </trkpt>
      <trkpt lat="46.67239" lon="5.54243">
        <ele>251.88</ele>
        <time>2021-12-15T15:09:11.999Z</time>
      </trkpt>
      <trkpt lat="46.67245" lon="5.54248">
        <ele>249.73</ele>
        <time>2021-12-15T15:09:21.999Z</time>
      </trkpt>
      <trkpt lat="46.67246" lon="5.54248">
        <ele>249.12</ele>
        <time>2021-12-15T15:09:31.999Z</time>
      </trkpt>
      <trkpt lat="46.67248" lon="5.54249">
        <ele>248.67</ele>
        <time>2021-12-15T15:10:19.999Z</time>
      </trkpt>
      <trkpt lat="46.6726" lon="5.54254">
        <ele>244.91</ele>
        <time>2021-12-15T15:10:29.999Z</time>
      </trkpt>
      <trkpt lat="46.67272" lon="5.54254">
        <ele>245.41</ele>
        <time>2021-12-15T15:10:39.999Z</time>
      </trkpt>
      <trkpt lat="46.67281" lon="5.54258">
        <ele>245.09</ele>
        <time>2021-12-15T15:10:49.999Z</time>
      </trkpt>
      <trkpt lat="46.67292" lon="5.54262">
        <ele>245.08</ele>
        <time>2021-12-15T15:10:59.999Z</time>
      </trkpt>
      <trkpt lat="46.67298" lon="5.54262">
        <ele>244.46</ele>
        <time>2021-12-15T15:11:09.999Z</time>
      </trkpt>
      <trkpt lat="46.67309" lon="5.54267">
        <ele>244.51</ele>
        <time>2021-12-15T15:11:19.999Z</time>
      </trkpt>
      <trkpt lat="46.67321" lon="5.54273">
        <ele>244.82</ele>
        <time>2021-12-15T15:11:29.999Z</time>
      </trkpt>
      <trkpt lat="46.67335" lon="5.54277">
        <ele>246.38</ele>
        <time>2021-12-15T15:11:39.999Z</time>
      </trkpt>
      <trkpt lat="46.67345" lon="5.54282">
        <ele>247.84</ele>
        <time>2021-12-15T15:11:49.999Z</time>
      </trkpt>
      <trkpt lat="46.67356" lon="5.54284">
        <ele>248.38</ele>
        <time>2021-12-15T15:11:59.999Z</time>
      </trkpt>
      <trkpt lat="46.67369" lon="5.54285">
        <ele>246.24</ele>
        <time>2021-12-15T15:12:09.999Z</time>
      </trkpt>
      <trkpt lat="46.67382" lon="5.54288">
        <ele>246.37</ele>
        <time>2021-12-15T15:12:19.999Z</time>
      </trkpt>
      <trkpt lat="46.67399" lon="5.5429">
        <ele>245.8</ele>
        <time>2021-12-15T15:12:29.999Z</time>
      </trkpt>
      <trkpt lat="46.6741" lon="5.54299">
        <ele>251.39</ele>
        <time>2021-12-15T15:12:39.999Z</time>
      </trkpt>
      <trkpt lat="46.67421" lon="5.543">
        <ele>252.37</ele>
        <time>2021-12-15T15:12:49.999Z</time>
      </trkpt>
      <trkpt lat="46.67434" lon="5.54299">
        <ele>253.58</ele>
        <time>2021-12-15T15:12:59.999Z</time>
      </trkpt>
      <trkpt lat="46.67444" lon="5.54294">
        <ele>249.18</ele>
        <time>2021-12-15T15:13:09.999Z</time>
      </trkpt>
      <trkpt lat="46.67454" lon="5.54298">
        <ele>244.56</ele>
        <time>2021-12-15T15:13:19.999Z</time>
      </trkpt>
      <trkpt lat="46.67469" lon="5.54316">
        <ele>246.12</ele>
        <time>2021-12-15T15:13:29.999Z</time>
      </trkpt>
      <trkpt lat="46.67481" lon="5.54311">
        <ele>245.1</ele>
        <time>2021-12-15T15:13:39.999Z</time>
      </trkpt>
      <trkpt lat="46.67493" lon="5.54305">
        <ele>243.91</ele>
        <time>2021-12-15T15:13:49.999Z</time>
      </trkpt>
      <trkpt lat="46.67504" lon="5.54305">
        <ele>243.56</ele>
        <time>2021-12-15T15:13:59.999Z</time>
      </trkpt>
      <trkpt lat="46.67514" lon="5.54309">
        <ele>239.59</ele>
        <time>2021-12-15T15:14:09.999Z</time>
      </trkpt>
      <trkpt lat="46.67525" lon="5.54295">
        <ele>239.16</ele>
        <time>2021-12-15T15:14:19.999Z</time>
      </trkpt>
      <trkpt lat="46.67528" lon="5.54277">
        <ele>239.15</ele>
        <time>2021-12-15T15:14:29.999Z</time>
      </trkpt>
      <trkpt lat="46.67532" lon="5.5426">
        <ele>237.75</ele>
        <time>2021-12-15T15:14:39.999Z</time>
      </trkpt>
      <trkpt lat="46.67536" lon="5.54239">
        <ele>235.24</ele>
        <time>2021-12-15T15:14:49.999Z</time>
      </trkpt>
      <trkpt lat="46.67539" lon="5.54221">
        <ele>234.94</ele>
        <time>2021-12-15T15:14:59.999Z</time>
      </trkpt>
      <trkpt lat="46.67543" lon="5.54212">
        <ele>232.39</ele>
        <time>2021-12-15T15:15:09.999Z</time>
      </trkpt>
      <trkpt lat="46.67548" lon="5.54194">
        <ele>231.81</ele>
        <time>2021-12-15T15:15:19.999Z</time>
      </trkpt>
      <trkpt lat="46.6755" lon="5.54177">
        <ele>229.9</ele>
        <time>2021-12-15T15:15:29.999Z</time>
      </trkpt>
      <trkpt lat="46.67553" lon="5.54155">
        <ele>232.01</ele>
        <time>2021-12-15T15:15:39.999Z</time>
      </trkpt>
      <trkpt lat="46.67556" lon="5.54139">
        <ele>233.85</ele>
        <time>2021-12-15T15:15:49.999Z</time>
      </trkpt>
      <trkpt lat="46.6756" lon="5.54121">
        <ele>235.19</ele>
        <time>2021-12-15T15:15:59.999Z</time>
      </trkpt>
      <trkpt lat="46.67559" lon="5.54106">
        <ele>234.35</ele>
        <time>2021-12-15T15:16:09.999Z</time>
      </trkpt>
      <trkpt lat="46.67558" lon="5.5409">
        <ele>234.6</ele>
        <time>2021-12-15T15:16:19.999Z</time>
      </trkpt>
      <trkpt lat="46.67555" lon="5.54077">
        <ele>232.59</ele>
        <time>2021-12-15T15:16:29.999Z</time>
      </trkpt>
      <trkpt lat="46.67551" lon="5.54056">
        <ele>232.7</ele>
        <time>2021-12-15T15:16:39.999Z</time>
      </trkpt>
      <trkpt lat="46.67548" lon="5.54034">
        <ele>235.42</ele>
        <time>2021-12-15T15:16:49.999Z</time>
      </trkpt>
      <trkpt lat="46.67556" lon="5.54013">
        <ele>237.16</ele>
        <time>2021-12-15T15:16:59.999Z</time>
      </trkpt>
      <trkpt lat="46.67555" lon="5.53998">
        <ele>239.27</ele>
        <time>2021-12-15T15:17:09.999Z</time>
      </trkpt>
      <trkpt lat="46.6755" lon="5.53986">
        <ele>242.36</ele>
        <time>2021-12-15T15:17:19.999Z</time>
      </trkpt>
      <trkpt lat="46.67542" lon="5.53983">
        <ele>244.97</ele>
        <time>2021-12-15T15:17:29.999Z</time>
      </trkpt>
      <trkpt lat="46.67531" lon="5.5398">
        <ele>249.02</ele>
        <time>2021-12-15T15:17:39.999Z</time>
      </trkpt>
      <trkpt lat="46.67526" lon="5.53975">
        <ele>248.89</ele>
        <time>2021-12-15T15:17:49.999Z</time>
      </trkpt>
      <trkpt lat="46.67524" lon="5.53973">
        <ele>249.8</ele>
        <time>2021-12-15T15:17:59.998Z</time>
      </trkpt>
      <trkpt lat="46.67521" lon="5.53969">
        <ele>251.59</ele>
        <time>2021-12-15T15:18:08.999Z</time>
      </trkpt>
      <trkpt lat="46.67514" lon="5.53958">
        <ele>251.39</ele>
        <time>2021-12-15T15:18:18.999Z</time>
      </trkpt>
      <trkpt lat="46.67512" lon="5.53944">
        <ele>250.78</ele>
        <time>2021-12-15T15:18:28.999Z</time>
      </trkpt>
      <trkpt lat="46.67506" lon="5.53928">
        <ele>246.09</ele>
        <time>2021-12-15T15:18:38.999Z</time>
      </trkpt>
      <trkpt lat="46.67504" lon="5.53909">
        <ele>245.18</ele>
        <time>2021-12-15T15:18:48.999Z</time>
      </trkpt>
      <trkpt lat="46.67499" lon="5.53895">
        <ele>245.72</ele>
        <time>2021-12-15T15:18:58.999Z</time>
      </trkpt>
      <trkpt lat="46.67496" lon="5.53893">
        <ele>244.37</ele>
        <time>2021-12-15T15:19:08.999Z</time>
      </trkpt>
      <trkpt lat="46.67496" lon="5.53893">
        <ele>244.37</ele>
        <time>2021-12-15T15:21:42.999Z</time>
      </trkpt>
    </trkseg>
  </trk>
</gpx>